Observation data for Fort Chadbourne on 02/12/2018      Previous  Date       Current Mesonet Observations  Soil Data  Daily Summary Page  Observations in Plain Language
KCH1 120600Z 33001KT M02/M09 A3028 RMK A01 T10201091  RH  058%=      5-min Rain = 0
KCH1 120601Z 35000KT M02/M09 A3028 RMK A01 T10211091  RH  059%=      5-min Rain = 0
KCH1 120602Z 00000KT M02/M09 A3028 RMK A01 T10211090  RH  059%=      5-min Rain = 0
KCH1 120603Z 00000KT M02/M09 A3028 RMK A01 T10211090  RH  059%=      5-min Rain = 0
KCH1 120604Z 00000KT M02/M09 A3028 RMK A01 T10211090  RH  060%=      5-min Rain = 0
KCH1 120605Z 00000KT M02/M09 A3028 RMK A01 T10221090  RH  060%=      5-min Rain = 0
KCH1 120606Z 00000KT M02/M09 A3029 RMK A01 T10221090  RH  060%=      5-min Rain = 0
KCH1 120607Z 00000KT M02/M09 A3029 RMK A01 T10231090  RH  060%=      5-min Rain = 0
KCH1 120608Z 00000KT M02/M09 A3029 RMK A01 T10231089  RH  060%=      5-min Rain = 0
KCH1 120609Z 00000KT M02/M09 A3029 RMK A01 T10231090  RH  060%=      5-min Rain = 0
KCH1 120610Z 00000KT M02/M09 A3029 RMK A01 T10231089  RH  061%=      5-min Rain = 0
KCH1 120611Z 00000KT M02/M09 A3029 RMK A01 T10231089  RH  061%=      5-min Rain = 0
KCH1 120612Z 00000KT M02/M09 A3029 RMK A01 T10231090  RH  060%=      5-min Rain = 0
KCH1 120613Z 00000KT M02/M09 A3029 RMK A01 T10241091  RH  060%=      5-min Rain = 0
KCH1 120614Z 35001KT M03/M09 A3028 RMK A01 T10251091  RH  060%=      5-min Rain = 0
KCH1 120615Z 35001KT M03/M09 A3029 RMK A01 T10251092  RH  060%=      5-min Rain = 0
KCH1 120616Z 35001KT M03/M09 A3029 RMK A01 T10251092  RH  060%=      5-min Rain = 0
KCH1 120617Z 34001KT M03/M09 A3029 RMK A01 T10251093  RH  060%=      5-min Rain = 0
KCH1 120618Z 34000KT M03/M09 A3029 RMK A01 T10251093  RH  060%=      5-min Rain = 0
KCH1 120619Z 00000KT M03/M09 A3029 RMK A01 T10251093  RH  059%=      5-min Rain = 0
KCH1 120620Z 00000KT M03/M09 A3029 RMK A01 T10251094  RH  059%=      5-min Rain = 0
KCH1 120621Z 00000KT M03/M10 A3029 RMK A01 T10281098  RH  058%=      5-min Rain = 0
KCH1 120622Z 34001KT M03/M10 A3029 RMK A01 T10301103  RH  057%=      5-min Rain = 0
KCH1 120623Z 18002KT M03/M11 A3029 RMK A01 T10331108  RH  056%=      5-min Rain = 0
KCH1 120624Z 17003KT M04/M11 A3029 RMK A01 T10361110  RH  056%=      5-min Rain = 0
KCH1 120625Z 18002KT M04/M11 A3029 RMK A01 T10371105  RH  059%=      5-min Rain = 0
KCH1 120626Z 19002KT M04/M10 A3029 RMK A01 T10371100  RH  062%=      5-min Rain = 0
KCH1 120627Z 19002KT M04/M10 A3029 RMK A01 T10361098  RH  062%=      5-min Rain = 0
KCH1 120628Z 20002KT M04/M10 A3029 RMK A01 T10351097  RH  062%=      5-min Rain = 0
KCH1 120629Z 22002KT M03/M10 A3029 RMK A01 T10341097  RH  062%=      5-min Rain = 0
KCH1 120630Z 21002KT M03/M10 A3029 RMK A01 T10341097  RH  062%=      5-min Rain = 0
KCH1 120631Z 21002KT M03/M10 A3029 RMK A01 T10341097  RH  062%=      5-min Rain = 0
KCH1 120632Z 21002KT M03/M10 A3029 RMK A01 T10341097  RH  062%=      5-min Rain = 0
KCH1 120633Z 21002KT M03/M10 A3029 RMK A01 T10341097  RH  061%=      5-min Rain = 0
KCH1 120634Z 20002KT M03/M10 A3029 RMK A01 T10331098  RH  061%=      5-min Rain = 0
KCH1 120635Z 19002KT M03/M10 A3029 RMK A01 T10331098  RH  061%=      5-min Rain = 0
KCH1 120636Z 18002KT M03/M10 A3029 RMK A01 T10331099  RH  060%=      5-min Rain = 0
KCH1 120637Z 18002KT M03/M10 A3029 RMK A01 T10331100  RH  060%=      5-min Rain = 0
KCH1 120638Z 17001KT M03/M10 A3029 RMK A01 T10331100  RH  060%=      5-min Rain = 0
KCH1 120639Z 16001KT M03/M10 A3029 RMK A01 T10321100  RH  060%=      5-min Rain = 0
KCH1 120640Z 17001KT M03/M10 A3029 RMK A01 T10321100  RH  059%=      5-min Rain = 0
KCH1 120641Z 17001KT M03/M10 A3029 RMK A01 T10311099  RH  059%=      5-min Rain = 0
KCH1 120642Z 17001KT M03/M10 A3029 RMK A01 T10311099  RH  059%=      5-min Rain = 0
KCH1 120643Z 17001KT M03/M10 A3029 RMK A01 T10311099  RH  059%=      5-min Rain = 0
KCH1 120644Z 17001KT M03/M10 A3029 RMK A01 T10311100  RH  059%=      5-min Rain = 0
KCH1 120645Z 17001KT M03/M10 A3029 RMK A01 T10311099  RH  059%=      5-min Rain = 0
KCH1 120646Z 17001KT M03/M10 A3029 RMK A01 T10311099  RH  059%=      5-min Rain = 0
KCH1 120647Z 17002KT M03/M10 A3029 RMK A01 T10311099  RH  059%=      5-min Rain = 0
KCH1 120648Z 17001KT M03/M10 A3029 RMK A01 T10301099  RH  059%=      5-min Rain = 0
KCH1 120649Z 17001KT M03/M10 A3029 RMK A01 T10301098  RH  059%=      5-min Rain = 0
KCH1 120650Z 17001KT M03/M10 A3029 RMK A01 T10291097  RH  059%=      5-min Rain = 0
KCH1 120651Z 17001KT M03/M10 A3029 RMK A01 T10291097  RH  059%=      5-min Rain = 0
KCH1 120652Z 18001KT M03/M10 A3029 RMK A01 T10291098  RH  059%=      5-min Rain = 0
KCH1 120653Z 20001KT M03/M10 A3029 RMK A01 T10291098  RH  059%=      5-min Rain = 0
KCH1 120654Z 21001KT M03/M10 A3029 RMK A01 T10291098  RH  059%=      5-min Rain = 0
KCH1 120655Z 20001KT M03/M10 A3029 RMK A01 T10291097  RH  059%=      5-min Rain = 0
KCH1 120656Z 19001KT M03/M10 A3029 RMK A01 T10291097  RH  059%=      5-min Rain = 0
KCH1 120657Z 18001KT M03/M10 A3029 RMK A01 T10291097  RH  059%=      5-min Rain = 0
KCH1 120658Z 18001KT M03/M10 A3029 RMK A01 T10291097  RH  060%=      5-min Rain = 0
KCH1 120659Z 18001KT M03/M10 A3029 RMK A01 T10291096  RH  060%=      5-min Rain = 0
KCH1 120700Z 19001KT M03/M10 A3029 RMK A01 T10281096  RH  060%=      5-min Rain = 0
KCH1 120701Z 19002KT M03/M10 A303 RMK A01 T10281096  RH  060%=      5-min Rain = 0
KCH1 120702Z 20002KT M03/M10 A303 RMK A01 T10281096  RH  059%=      5-min Rain = 0
KCH1 120703Z 20001KT M03/M10 A303 RMK A01 T10281097  RH  059%=      5-min Rain = 0
KCH1 120704Z 20002KT M03/M10 A303 RMK A01 T10281097  RH  059%=      5-min Rain = 0
KCH1 120705Z 20001KT M03/M10 A303 RMK A01 T10281098  RH  059%=      5-min Rain = 0
KCH1 120706Z 20001KT M03/M10 A303 RMK A01 T10281098  RH  059%=      5-min Rain = 0
KCH1 120707Z 19001KT M03/M10 A303 RMK A01 T10281098  RH  059%=      5-min Rain = 0
KCH1 120708Z 19001KT M03/M10 A303 RMK A01 T10271097  RH  059%=      5-min Rain = 0
KCH1 120709Z 19001KT M03/M10 A303 RMK A01 T10271097  RH  059%=      5-min Rain = 0
KCH1 120710Z 19000KT M03/M10 A303 RMK A01 T10261096  RH  059%=      5-min Rain = 0
KCH1 120711Z 00000KT M03/M10 A303 RMK A01 T10251095  RH  059%=      5-min Rain = 0
KCH1 120712Z 00000KT M02/M10 A303 RMK A01 T10241096  RH  058%=      5-min Rain = 0
KCH1 120713Z 00000KT M03/M10 A303 RMK A01 T10251097  RH  058%=      5-min Rain = 0
KCH1 120714Z 00000KT M03/M10 A303 RMK A01 T10261098  RH  058%=      5-min Rain = 0
KCH1 120715Z 00000KT M03/M10 A303 RMK A01 T10271098  RH  058%=      5-min Rain = 0
KCH1 120716Z 00000KT M03/M10 A303 RMK A01 T10281099  RH  058%=      5-min Rain = 0
KCH1 120717Z 00000KT M03/M10 A303 RMK A01 T10291100  RH  058%=      5-min Rain = 0
KCH1 120718Z 00000KT M03/M10 A303 RMK A01 T10311100  RH  059%=      5-min Rain = 0
KCH1 120719Z 00000KT M03/M10 A303 RMK A01 T10311100  RH  059%=      5-min Rain = 0
KCH1 120720Z 00000KT M03/M10 A303 RMK A01 T10321100  RH  060%=      5-min Rain = 0
KCH1 120721Z 00000KT M03/M10 A303 RMK A01 T10331099  RH  060%=      5-min Rain = 0
KCH1 120722Z 00000KT M03/M10 A303 RMK A01 T10321099  RH  060%=      5-min Rain = 0
KCH1 120723Z 00000KT M03/M10 A303 RMK A01 T10331098  RH  060%=      5-min Rain = 0
KCH1 120724Z 00000KT M03/M10 A303 RMK A01 T10321096  RH  061%=      5-min Rain = 0
KCH1 120725Z 00000KT M03/M10 A303 RMK A01 T10321097  RH  061%=      5-min Rain = 0
KCH1 120726Z 00000KT M03/M10 A303 RMK A01 T10321097  RH  060%=      5-min Rain = 0
KCH1 120727Z 00000KT M03/M10 A303 RMK A01 T10311097  RH  061%=      5-min Rain = 0
KCH1 120728Z 00000KT M03/M10 A303 RMK A01 T10311096  RH  061%=      5-min Rain = 0
KCH1 120729Z 00000KT M03/M09 A303 RMK A01 T10301094  RH  061%=      5-min Rain = 0
KCH1 120730Z 00000KT M03/M10 A303 RMK A01 T10291095  RH  060%=      5-min Rain = 0
KCH1 120731Z 00000KT M03/M10 A303 RMK A01 T10291096  RH  060%=      5-min Rain = 0
KCH1 120732Z 00000KT M03/M10 A303 RMK A01 T10291098  RH  059%=      5-min Rain = 0
KCH1 120733Z 00000KT M03/M10 A303 RMK A01 T10301098  RH  060%=      5-min Rain = 0
KCH1 120734Z 00000KT M03/M10 A303 RMK A01 T10301097  RH  060%=      5-min Rain = 0
KCH1 120735Z 00000KT M03/M10 A303 RMK A01 T10301097  RH  060%=      5-min Rain = 0
KCH1 120736Z 00000KT M03/M10 A303 RMK A01 T10291096  RH  060%=      5-min Rain = 0
KCH1 120737Z 00000KT M03/M10 A303 RMK A01 T10291096  RH  060%=      5-min Rain = 0
KCH1 120738Z 00000KT M03/M10 A303 RMK A01 T10281096  RH  060%=      5-min Rain = 0
KCH1 120739Z 00000KT M03/M10 A303 RMK A01 T10281095  RH  060%=      5-min Rain = 0
KCH1 120740Z 00000KT M03/M10 A303 RMK A01 T10281096  RH  059%=      5-min Rain = 0
KCH1 120741Z 00000KT M03/M10 A303 RMK A01 T10281097  RH  059%=      5-min Rain = 0
KCH1 120742Z 00000KT M03/M10 A303 RMK A01 T10291097  RH  059%=      5-min Rain = 0
KCH1 120743Z 00000KT M03/M10 A303 RMK A01 T10291097  RH  059%=      5-min Rain = 0
KCH1 120744Z 00000KT M03/M10 A303 RMK A01 T10291098  RH  059%=      5-min Rain = 0
KCH1 120745Z 00000KT M03/M10 A303 RMK A01 T10291097  RH  059%=      5-min Rain = 0
KCH1 120746Z 00000KT M03/M10 A303 RMK A01 T10291097  RH  059%=      5-min Rain = 0
KCH1 120747Z 14000KT M03/M10 A303 RMK A01 T10301098  RH  059%=      5-min Rain = 0
KCH1 120748Z 14001KT M03/M10 A303 RMK A01 T10301098  RH  060%=      5-min Rain = 0
KCH1 120749Z 13000KT M03/M10 A303 RMK A01 T10311098  RH  060%=      5-min Rain = 0
KCH1 120750Z 00000KT M03/M10 A303 RMK A01 T10311098  RH  060%=      5-min Rain = 0
KCH1 120751Z 00000KT M03/M10 A303 RMK A01 T10321098  RH  060%=      5-min Rain = 0
KCH1 120752Z 00000KT M03/M10 A303 RMK A01 T10331099  RH  060%=      5-min Rain = 0
KCH1 120753Z 00000KT M03/M10 A303 RMK A01 T10341099  RH  060%=      5-min Rain = 0
KCH1 120754Z 00000KT M04/M10 A3031 RMK A01 T10351100  RH  061%=      5-min Rain = 0
KCH1 120755Z 00000KT M04/M10 A3031 RMK A01 T10361101  RH  061%=      5-min Rain = 0
KCH1 120756Z 00000KT M04/M10 A3031 RMK A01 T10371102  RH  061%=      5-min Rain = 0
KCH1 120757Z 00000KT M04/M10 A3031 RMK A01 T10381102  RH  061%=      5-min Rain = 0
KCH1 120758Z 00000KT M04/M10 A3031 RMK A01 T10391102  RH  062%=      5-min Rain = 0
KCH1 120759Z 00000KT M04/M10 A3031 RMK A01 T10391101  RH  062%=      5-min Rain = 0
KCH1 120800Z 00000KT M04/M10 A3031 RMK A01 T10401103  RH  062%=      5-min Rain = 0
KCH1 120801Z 00000KT M04/M11 A3031 RMK A01 T10431108  RH  060%=      5-min Rain = 0
KCH1 120802Z 00000KT M05/M11 A3031 RMK A01 T10451110  RH  061%=      5-min Rain = 0
KCH1 120803Z 00000KT M05/M11 A3031 RMK A01 T10471110  RH  061%=      5-min Rain = 0
KCH1 120804Z 00000KT M05/M11 A3031 RMK A01 T10481110  RH  062%=      5-min Rain = 0
KCH1 120805Z 00000KT M05/M11 A3031 RMK A01 T10481110  RH  062%=      5-min Rain = 0
KCH1 120806Z 00000KT M05/M11 A3031 RMK A01 T10501111  RH  062%=      5-min Rain = 0
KCH1 120807Z 00000KT M05/M11 A3031 RMK A01 T10501110  RH  063%=      5-min Rain = 0
KCH1 120808Z 00000KT M05/M11 A3031 RMK A01 T10501108  RH  064%=      5-min Rain = 0
KCH1 120809Z 00000KT M05/M11 A3031 RMK A01 T10501107  RH  064%=      5-min Rain = 0
KCH1 120810Z 00000KT M05/M11 A3031 RMK A01 T10491105  RH  065%=      5-min Rain = 0
KCH1 120811Z 00000KT M05/M11 A3031 RMK A01 T10491105  RH  065%=      5-min Rain = 0
KCH1 120812Z 00000KT M05/M11 A3031 RMK A01 T10481105  RH  065%=      5-min Rain = 0
KCH1 120813Z 00000KT M05/M11 A3031 RMK A01 T10481106  RH  064%=      5-min Rain = 0
KCH1 120814Z 00000KT M05/M11 A3031 RMK A01 T10481107  RH  064%=      5-min Rain = 0
KCH1 120815Z 23000KT M05/M11 A3031 RMK A01 T10491107  RH  064%=      5-min Rain = 0
KCH1 120816Z 23001KT M05/M11 A3031 RMK A01 T10491106  RH  064%=      5-min Rain = 0
KCH1 120817Z 23001KT M05/M10 A3031 RMK A01 T10481104  RH  065%=      5-min Rain = 0
KCH1 120818Z 00000KT M05/M10 A3031 RMK A01 T10471102  RH  065%=      5-min Rain = 0
KCH1 120819Z 00000KT M05/M10 A3031 RMK A01 T10461102  RH  065%=      5-min Rain = 0
KCH1 120820Z 00000KT M05/M10 A3031 RMK A01 T10451103  RH  064%=      5-min Rain = 0
KCH1 120821Z 00000KT M05/M10 A3032 RMK A01 T10451103  RH  064%=      5-min Rain = 0
KCH1 120822Z 00000KT M05/M11 A3032 RMK A01 T10461105  RH  063%=      5-min Rain = 0
KCH1 120823Z 23000KT M05/M11 A3032 RMK A01 T10461107  RH  063%=      5-min Rain = 0
KCH1 120824Z 23001KT M05/M11 A3032 RMK A01 T10471107  RH  063%=      5-min Rain = 0
KCH1 120825Z 23000KT M05/M11 A3032 RMK A01 T10481107  RH  063%=      5-min Rain = 0
KCH1 120826Z 23000KT M05/M11 A3032 RMK A01 T10481106  RH  064%=      5-min Rain = 0
KCH1 120827Z 00000KT M05/M11 A3032 RMK A01 T10481105  RH  064%=      5-min Rain = 0
KCH1 120828Z 24000KT M05/M11 A3032 RMK A01 T10481105  RH  064%=      5-min Rain = 0
KCH1 120829Z 24001KT M05/M10 A3032 RMK A01 T10481104  RH  065%=      5-min Rain = 0
KCH1 120830Z 24001KT M05/M10 A3032 RMK A01 T10491104  RH  065%=      5-min Rain = 0
KCH1 120831Z 24000KT M05/M10 A3032 RMK A01 T10481103  RH  065%=      5-min Rain = 0
KCH1 120832Z 00000KT M05/M10 A3032 RMK A01 T10471103  RH  065%=      5-min Rain = 0
KCH1 120833Z 00000KT M05/M11 A3032 RMK A01 T10481107  RH  063%=      5-min Rain = 0
KCH1 120834Z 00000KT M05/M11 A3032 RMK A01 T10501109  RH  063%=      5-min Rain = 0
KCH1 120835Z 00000KT M05/M11 A3032 RMK A01 T10511109  RH  064%=      5-min Rain = 0
KCH1 120836Z 00000KT M05/M11 A3032 RMK A01 T10511110  RH  063%=      5-min Rain = 0
KCH1 120837Z 00000KT M05/M11 A3032 RMK A01 T10521111  RH  063%=      5-min Rain = 0
KCH1 120838Z 00000KT M05/M11 A3032 RMK A01 T10531111  RH  064%=      5-min Rain = 0
KCH1 120839Z 00000KT M05/M11 A3031 RMK A01 T10531109  RH  065%=      5-min Rain = 0
KCH1 120840Z 00000KT M05/M11 A3031 RMK A01 T10531111  RH  064%=      5-min Rain = 0
KCH1 120841Z 00000KT M05/M11 A3031 RMK A01 T10541111  RH  064%=      5-min Rain = 0
KCH1 120842Z 00000KT M05/M11 A3031 RMK A01 T10541110  RH  065%=      5-min Rain = 0
KCH1 120843Z 00000KT M05/M11 A3032 RMK A01 T10541110  RH  065%=      5-min Rain = 0
KCH1 120844Z 00000KT M05/M11 A3032 RMK A01 T10541110  RH  065%=      5-min Rain = 0
KCH1 120845Z 00000KT M05/M11 A3032 RMK A01 T10541109  RH  065%=      5-min Rain = 0
KCH1 120846Z 24000KT M05/M11 A3032 RMK A01 T10531109  RH  065%=      5-min Rain = 0
KCH1 120847Z 24001KT M05/M11 A3032 RMK A01 T10541110  RH  065%=      5-min Rain = 0
KCH1 120848Z 24001KT M05/M11 A3032 RMK A01 T10541109  RH  065%=      5-min Rain = 0
KCH1 120849Z 24000KT M05/M11 A3032 RMK A01 T10541108  RH  065%=      5-min Rain = 0
KCH1 120850Z 00000KT M05/M11 A3031 RMK A01 T10531107  RH  066%=      5-min Rain = 0
KCH1 120851Z 00000KT M05/M11 A3031 RMK A01 T10521107  RH  066%=      5-min Rain = 0
KCH1 120852Z 00000KT M05/M11 A3031 RMK A01 T10521106  RH  065%=      5-min Rain = 0
KCH1 120853Z 00000KT M05/M11 A3032 RMK A01 T10511107  RH  065%=      5-min Rain = 0
KCH1 120854Z 00000KT M05/M11 A3032 RMK A01 T10511108  RH  064%=      5-min Rain = 0
KCH1 120855Z 00000KT M05/M11 A3032 RMK A01 T10511109  RH  064%=      5-min Rain = 0
KCH1 120856Z 00000KT M05/M11 A3031 RMK A01 T10521111  RH  063%=      5-min Rain = 0
KCH1 120857Z 24000KT M05/M11 A3031 RMK A01 T10531111  RH  064%=      5-min Rain = 0
KCH1 120858Z 24001KT M05/M11 A3031 RMK A01 T10531111  RH  064%=      5-min Rain = 0
KCH1 120859Z 24001KT M05/M11 A3031 RMK A01 T10531110  RH  064%=      5-min Rain = 0
KCH1 120900Z 24001KT M05/M11 A3031 RMK A01 T10541111  RH  064%=      5-min Rain = 0
KCH1 120901Z 24000KT M05/M11 A3031 RMK A01 T10541112  RH  064%=      5-min Rain = 0
KCH1 120902Z 00000KT M05/M11 A3032 RMK A01 T10541112  RH  064%=      5-min Rain = 0
KCH1 120903Z 00000KT M06/M11 A3032 RMK A01 T10551112  RH  064%=      5-min Rain = 0
KCH1 120904Z 00000KT M06/M11 A3032 RMK A01 T10551112  RH  064%=      5-min Rain = 0
KCH1 120905Z 24000KT M06/M11 A3032 RMK A01 T10561113  RH  064%=      5-min Rain = 0
KCH1 120906Z 24001KT M06/M11 A3032 RMK A01 T10571113  RH  065%=      5-min Rain = 0
KCH1 120907Z 24001KT M06/M11 A3032 RMK A01 T10571112  RH  065%=      5-min Rain = 0
KCH1 120908Z 24001KT M06/M11 A3032 RMK A01 T10571111  RH  065%=      5-min Rain = 0
KCH1 120909Z 00000KT M06/M11 A3032 RMK A01 T10561111  RH  066%=      5-min Rain = 0
KCH1 120910Z 00000KT M06/M11 A3032 RMK A01 T10561110  RH  066%=      5-min Rain = 0
KCH1 120911Z 00000KT M06/M11 A3032 RMK A01 T10551109  RH  066%=      5-min Rain = 0
KCH1 120912Z 00000KT M05/M11 A3032 RMK A01 T10541109  RH  066%=      5-min Rain = 0
KCH1 120913Z 00000KT M05/M11 A3032 RMK A01 T10541108  RH  065%=      5-min Rain = 0
KCH1 120914Z 00000KT M05/M11 A3032 RMK A01 T10531109  RH  065%=      5-min Rain = 0
KCH1 120915Z 00000KT M05/M11 A3032 RMK A01 T10521107  RH  065%=      5-min Rain = 0
KCH1 120916Z 02001KT M05/M11 A3032 RMK A01 T10501106  RH  065%=      5-min Rain = 0
KCH1 120917Z 02002KT M05/M11 A3032 RMK A01 T10501107  RH  064%=      5-min Rain = 0
KCH1 120918Z 03002KT M05/M11 A3032 RMK A01 T10501110  RH  063%=      5-min Rain = 0
KCH1 120919Z 03002KT M05/M11 A3032 RMK A01 T10531113  RH  063%=      5-min Rain = 0
KCH1 120920Z 03003KT M06/M11 A3032 RMK A01 T10561114  RH  064%=      5-min Rain = 0
KCH1 120921Z 03003KT M06/M11 A3031 RMK A01 T10571114  RH  064%=      5-min Rain = 0
KCH1 120922Z 03003KT M06/M11 A3031 RMK A01 T10581113  RH  065%=      5-min Rain = 0
KCH1 120923Z 03004KT M06/M11 A3031 RMK A01 T10591113  RH  065%=      5-min Rain = 0
KCH1 120924Z 03004KT M06/M11 A3031 RMK A01 T10591113  RH  066%=      5-min Rain = 0
KCH1 120925Z 03003KT M06/M11 A3031 RMK A01 T10601113  RH  066%=      5-min Rain = 0
KCH1 120926Z 03003KT M06/M11 A3031 RMK A01 T10601112  RH  067%=      5-min Rain = 0
KCH1 120927Z 03003KT M06/M11 A3031 RMK A01 T10601112  RH  067%=      5-min Rain = 0
KCH1 120928Z 03003KT M06/M11 A3031 RMK A01 T10591110  RH  067%=      5-min Rain = 0
KCH1 120929Z 04002KT M06/M11 A3031 RMK A01 T10571108  RH  067%=      5-min Rain = 0
KCH1 120930Z 04002KT M05/M11 A3031 RMK A01 T10541106  RH  067%=      5-min Rain = 0
KCH1 120931Z 04002KT M05/M11 A3031 RMK A01 T10511106  RH  066%=      5-min Rain = 0
KCH1 120932Z 04002KT M05/M11 A3031 RMK A01 T10501106  RH  065%=      5-min Rain = 0
KCH1 120933Z 03002KT M05/M11 A3031 RMK A01 T10481106  RH  064%=      5-min Rain = 0
KCH1 120934Z 03003KT M05/M11 A3031 RMK A01 T10481107  RH  063%=      5-min Rain = 0
KCH1 120935Z 03003KT M05/M11 A3031 RMK A01 T10481108  RH  063%=      5-min Rain = 0
KCH1 120936Z 02003KT M05/M11 A3031 RMK A01 T10481108  RH  063%=      5-min Rain = 0
KCH1 120937Z 02003KT M05/M11 A3031 RMK A01 T10471108  RH  063%=      5-min Rain = 0
KCH1 120938Z 01004KT M05/M11 A3031 RMK A01 T10481108  RH  063%=      5-min Rain = 0
KCH1 120939Z 01004KT M05/M11 A3031 RMK A01 T10491109  RH  063%=      5-min Rain = 0
KCH1 120940Z 01004KT M05/M11 A3031 RMK A01 T10491109  RH  063%=      5-min Rain = 0
KCH1 120941Z 00004KT M05/M11 A3032 RMK A01 T10491108  RH  064%=      5-min Rain = 0
KCH1 120942Z 00004KT M05/M11 A3031 RMK A01 T10491107  RH  064%=      5-min Rain = 0
KCH1 120943Z 00004KT M05/M11 A3031 RMK A01 T10481106  RH  064%=      5-min Rain = 0
KCH1 120944Z 00004KT M05/M11 A3031 RMK A01 T10461105  RH  063%=      5-min Rain = 0
KCH1 120945Z 00004KT M05/M11 A3031 RMK A01 T10451106  RH  063%=      5-min Rain = 0
KCH1 120946Z 00004KT M04/M11 A3031 RMK A01 T10441106  RH  062%=      5-min Rain = 0
KCH1 120947Z 36005KT M04/M11 A3031 RMK A01 T10441106  RH  062%=      5-min Rain = 0
KCH1 120948Z 35005KT M04/M11 A3031 RMK A01 T10441107  RH  062%=      5-min Rain = 0
KCH1 120949Z 35005KT M04/M11 A3031 RMK A01 T10441107  RH  062%=      5-min Rain = 0
KCH1 120950Z 34004KT M04/M11 A3032 RMK A01 T10441107  RH  062%=      5-min Rain = 0
KCH1 120951Z 34004KT M04/M11 A3032 RMK A01 T10431106  RH  062%=      5-min Rain = 0
KCH1 120952Z 33003KT M04/M11 A3032 RMK A01 T10431106  RH  061%=      5-min Rain = 0
KCH1 120953Z 33003KT M04/M11 A3032 RMK A01 T10421105  RH  061%=      5-min Rain = 0
KCH1 120954Z 33003KT M04/M11 A3032 RMK A01 T10411105  RH  061%=      5-min Rain = 0
KCH1 120955Z 33003KT M04/M11 A3032 RMK A01 T10411106  RH  061%=      5-min Rain = 0
KCH1 120956Z 34002KT M04/M11 A3032 RMK A01 T10411106  RH  061%=      5-min Rain = 0
KCH1 120957Z 35002KT M04/M11 A3032 RMK A01 T10421106  RH  061%=      5-min Rain = 0
KCH1 120958Z 35003KT M04/M11 A3032 RMK A01 T10421106  RH  061%=      5-min Rain = 0
KCH1 120959Z 35003KT M04/M11 A3032 RMK A01 T10421106  RH  061%=      5-min Rain = 0
KCH1 121000Z 35003KT M04/M11 A3032 RMK A01 T10421106  RH  061%=      5-min Rain = 0
KCH1 121001Z 34003KT M04/M11 A3032 RMK A01 T10421106  RH  061%=      5-min Rain = 0
KCH1 121002Z 34003KT M04/M11 A3032 RMK A01 T10421106  RH  061%=      5-min Rain = 0
KCH1 121003Z 35004KT M04/M11 A3032 RMK A01 T10421106  RH  061%=      5-min Rain = 0
KCH1 121004Z 35004KT M04/M11 A3032 RMK A01 T10421106  RH  061%=      5-min Rain = 0
KCH1 121005Z 00003KT M04/M11 A3032 RMK A01 T10411105  RH  061%=      5-min Rain = 0
KCH1 121006Z 00003KT M04/M11 A3032 RMK A01 T10401105  RH  061%=      5-min Rain = 0
KCH1 121007Z 00002KT M04/M11 A3032 RMK A01 T10401106  RH  060%=      5-min Rain = 0
KCH1 121008Z 00002KT M04/M11 A3032 RMK A01 T10421108  RH  060%=      5-min Rain = 0
KCH1 121009Z 01002KT M04/M11 A3032 RMK A01 T10441109  RH  061%=      5-min Rain = 0
KCH1 121010Z 01003KT M05/M11 A3031 RMK A01 T10471110  RH  061%=      5-min Rain = 0
KCH1 121011Z 02002KT M05/M11 A3031 RMK A01 T10501111  RH  062%=      5-min Rain = 0
KCH1 121012Z 04002KT M05/M11 A3031 RMK A01 T10541113  RH  063%=      5-min Rain = 0
KCH1 121013Z 04002KT M06/M11 A3031 RMK A01 T10561113  RH  064%=      5-min Rain = 0
KCH1 121014Z 06001KT M06/M11 A3031 RMK A01 T10581113  RH  065%=      5-min Rain = 0
KCH1 121015Z 08001KT M06/M11 A3032 RMK A01 T10581112  RH  066%=      5-min Rain = 0
KCH1 121016Z 07002KT M06/M11 A3032 RMK A01 T10591112  RH  066%=      5-min Rain = 0
KCH1 121017Z 05002KT M06/M11 A3031 RMK A01 T10591111  RH  067%=      5-min Rain = 0
KCH1 121018Z 04003KT M06/M11 A3031 RMK A01 T10591110  RH  068%=      5-min Rain = 0
KCH1 121019Z 04003KT M06/M11 A3031 RMK A01 T10591110  RH  068%=      5-min Rain = 0
KCH1 121020Z 04003KT M06/M11 A3031 RMK A01 T10591109  RH  068%=      5-min Rain = 0
KCH1 121021Z 04003KT M06/M11 A3031 RMK A01 T10581109  RH  068%=      5-min Rain = 0
KCH1 121022Z 03003KT M06/M11 A3031 RMK A01 T10581109  RH  067%=      5-min Rain = 0
KCH1 121023Z 03003KT M06/M11 A3031 RMK A01 T10581110  RH  067%=      5-min Rain = 0
KCH1 121024Z 03003KT M06/M11 A3031 RMK A01 T10581110  RH  067%=      5-min Rain = 0
KCH1 121025Z 03003KT M06/M11 A3031 RMK A01 T10581110  RH  067%=      5-min Rain = 0
KCH1 121026Z 04002KT M06/M11 A3031 RMK A01 T10591110  RH  067%=      5-min Rain = 0
KCH1 121027Z 05002KT M06/M11 A3031 RMK A01 T10591110  RH  067%=      5-min Rain = 0
KCH1 121028Z 05002KT M06/M11 A3031 RMK A01 T10591109  RH  068%=      5-min Rain = 0
KCH1 121029Z 06002KT M06/M11 A3031 RMK A01 T10601109  RH  068%=      5-min Rain = 0
KCH1 121030Z 06002KT M06/M11 A3031 RMK A01 T10601108  RH  069%=      5-min Rain = 0
KCH1 121031Z 07002KT M06/M11 A3031 RMK A01 T10601108  RH  069%=      5-min Rain = 0
KCH1 121032Z 07002KT M06/M11 A3031 RMK A01 T10591109  RH  068%=      5-min Rain = 0
KCH1 121033Z 08002KT M06/M11 A3031 RMK A01 T10591109  RH  067%=      5-min Rain = 0
KCH1 121034Z 08002KT M06/M11 A3031 RMK A01 T10591110  RH  067%=      5-min Rain = 0
KCH1 121035Z 08001KT M06/M11 A3031 RMK A01 T10591111  RH  067%=      5-min Rain = 0
KCH1 121036Z 07001KT M06/M11 A3031 RMK A01 T10581110  RH  067%=      5-min Rain = 0
KCH1 121037Z 07001KT M06/M11 A3031 RMK A01 T10581110  RH  067%=      5-min Rain = 0
KCH1 121038Z 07001KT M06/M11 A3031 RMK A01 T10581111  RH  066%=      5-min Rain = 0
KCH1 121039Z 07000KT M06/M11 A3031 RMK A01 T10571111  RH  066%=      5-min Rain = 0
KCH1 121040Z 00000KT M06/M11 A3031 RMK A01 T10561111  RH  065%=      5-min Rain = 0
KCH1 121041Z 00000KT M06/M11 A3031 RMK A01 T10561111  RH  065%=      5-min Rain = 0
KCH1 121042Z 01001KT M06/M11 A3031 RMK A01 T10551111  RH  065%=      5-min Rain = 0
KCH1 121043Z 00002KT M05/M11 A3031 RMK A01 T10541110  RH  065%=      5-min Rain = 0
KCH1 121044Z 35002KT M05/M11 A3032 RMK A01 T10531109  RH  064%=      5-min Rain = 0
KCH1 121045Z 35001KT M05/M11 A3032 RMK A01 T10521108  RH  065%=      5-min Rain = 0
KCH1 121046Z 35001KT M05/M11 A3032 RMK A01 T10511107  RH  065%=      5-min Rain = 0
KCH1 121047Z 04000KT M05/M11 A3032 RMK A01 T10511106  RH  065%=      5-min Rain = 0
KCH1 121048Z 04001KT M05/M11 A3032 RMK A01 T10511106  RH  065%=      5-min Rain = 0
KCH1 121049Z 04000KT M05/M11 A3032 RMK A01 T10511106  RH  065%=      5-min Rain = 0
KCH1 121050Z 04000KT M05/M11 A3032 RMK A01 T10501106  RH  065%=      5-min Rain = 0
KCH1 121051Z 00000KT M05/M11 A3032 RMK A01 T10501106  RH  065%=      5-min Rain = 0
KCH1 121052Z 00000KT M05/M11 A3032 RMK A01 T10501107  RH  065%=      5-min Rain = 0
KCH1 121053Z 04000KT M05/M11 A3032 RMK A01 T10501106  RH  065%=      5-min Rain = 0
KCH1 121054Z 04000KT M05/M11 A3032 RMK A01 T10501106  RH  065%=      5-min Rain = 0
KCH1 121055Z 04000KT M05/M11 A3032 RMK A01 T10501105  RH  065%=      5-min Rain = 0
KCH1 121056Z 04001KT M05/M11 A3032 RMK A01 T10501105  RH  065%=      5-min Rain = 0
KCH1 121057Z 04001KT M05/M11 A3032 RMK A01 T10491106  RH  064%=      5-min Rain = 0
KCH1 121058Z 04001KT M05/M11 A3032 RMK A01 T10481106  RH  064%=      5-min Rain = 0
KCH1 121059Z 04002KT M05/M11 A3032 RMK A01 T10481106  RH  064%=      5-min Rain = 0
KCH1 121100Z 04002KT M05/M11 A3032 RMK A01 T10481106  RH  064%=      5-min Rain = 0
KCH1 121101Z 03002KT M05/M11 A3032 RMK A01 T10471105  RH  064%=      5-min Rain = 0
KCH1 121102Z 03002KT M05/M11 A3032 RMK A01 T10471105  RH  064%=      5-min Rain = 0
KCH1 121103Z 03002KT M05/M11 A3032 RMK A01 T10471105  RH  064%=      5-min Rain = 0
KCH1 121104Z 03002KT M05/M10 A3032 RMK A01 T10471104  RH  064%=      5-min Rain = 0
KCH1 121105Z 03002KT M05/M10 A3032 RMK A01 T10471104  RH  064%=      5-min Rain = 0
KCH1 121106Z 02002KT M05/M10 A3032 RMK A01 T10461104  RH  064%=      5-min Rain = 0
KCH1 121107Z 01002KT M05/M10 A3032 RMK A01 T10461104  RH  064%=      5-min Rain = 0
KCH1 121108Z 36002KT M05/M10 A3032 RMK A01 T10461104  RH  064%=      5-min Rain = 0
KCH1 121109Z 33002KT M05/M10 A3032 RMK A01 T10451103  RH  064%=      5-min Rain = 0
KCH1 121110Z 32002KT M05/M10 A3033 RMK A01 T10451102  RH  064%=      5-min Rain = 0
KCH1 121111Z 30002KT M05/M10 A3033 RMK A01 T10451102  RH  064%=      5-min Rain = 0
KCH1 121112Z 29003KT M05/M10 A3033 RMK A01 T10451102  RH  065%=      5-min Rain = 0
KCH1 121113Z 29003KT M05/M10 A3033 RMK A01 T10451101  RH  065%=      5-min Rain = 0
KCH1 121114Z 29003KT M05/M10 A3033 RMK A01 T10451102  RH  065%=      5-min Rain = 0
KCH1 121115Z 28003KT M05/M10 A3033 RMK A01 T10451102  RH  064%=      5-min Rain = 0
KCH1 121116Z 27003KT M05/M10 A3033 RMK A01 T10451103  RH  064%=      5-min Rain = 0
KCH1 121117Z 26002KT M05/M10 A3033 RMK A01 T10451104  RH  064%=      5-min Rain = 0
KCH1 121118Z 25002KT M05/M10 A3033 RMK A01 T10451104  RH  063%=      5-min Rain = 0
KCH1 121119Z 25002KT M05/M10 A3033 RMK A01 T10451104  RH  063%=      5-min Rain = 0
KCH1 121120Z 26002KT M05/M10 A3033 RMK A01 T10461104  RH  064%=      5-min Rain = 0
KCH1 121121Z 28001KT M05/M10 A3033 RMK A01 T10461103  RH  064%=      5-min Rain = 0
KCH1 121122Z 29001KT M05/M10 A3033 RMK A01 T10451104  RH  064%=      5-min Rain = 0
KCH1 121123Z 29000KT M04/M10 A3033 RMK A01 T10431103  RH  063%=      5-min Rain = 0
KCH1 121124Z 00000KT M04/M10 A3033 RMK A01 T10421103  RH  062%=      5-min Rain = 0
KCH1 121125Z 00000KT M04/M10 A3033 RMK A01 T10391104  RH  061%=      5-min Rain = 0
KCH1 121126Z 00000KT M04/M10 A3033 RMK A01 T10361104  RH  059%=      5-min Rain = 0
KCH1 121127Z 00000KT M04/M11 A3033 RMK A01 T10351105  RH  058%=      5-min Rain = 0
KCH1 121128Z 00000KT M03/M11 A3033 RMK A01 T10331105  RH  058%=      5-min Rain = 0
KCH1 121129Z 00000KT M03/M11 A3033 RMK A01 T10331105  RH  057%=      5-min Rain = 0
KCH1 121130Z 31001KT M03/M11 A3033 RMK A01 T10341105  RH  058%=      5-min Rain = 0
KCH1 121131Z 31001KT M04/M11 A3033 RMK A01 T10371105  RH  059%=      5-min Rain = 0
KCH1 121132Z 30002KT M04/M11 A3033 RMK A01 T10381105  RH  060%=      5-min Rain = 0
KCH1 121133Z 30002KT M04/M10 A3033 RMK A01 T10381104  RH  060%=      5-min Rain = 0
KCH1 121134Z 30003KT M04/M10 A3033 RMK A01 T10381103  RH  061%=      5-min Rain = 0
KCH1 121135Z 29003KT M04/M10 A3033 RMK A01 T10371099  RH  062%=      5-min Rain = 0
KCH1 121136Z 29003KT M04/M10 A3033 RMK A01 T10371097  RH  063%=      5-min Rain = 0
KCH1 121137Z 29004KT M04/M09 A3034 RMK A01 T10371090  RH  067%=      5-min Rain = 0
KCH1 121138Z 29004KT M04/M09 A3034 RMK A01 T10371085  RH  069%=      5-min Rain = 0
KCH1 121139Z 30004KT M04/M09 A3034 RMK A01 T10371085  RH  070%=      5-min Rain = 0
KCH1 121140Z 31004KT M04/M09 A3034 RMK A01 T10381086  RH  069%=      5-min Rain = 0
KCH1 121141Z 32003KT M04/M09 A3033 RMK A01 T10381087  RH  069%=      5-min Rain = 0
KCH1 121142Z 33002KT M04/M09 A3033 RMK A01 T10391089  RH  068%=      5-min Rain = 0
KCH1 121143Z 33001KT M04/M10 A3033 RMK A01 T10421095  RH  066%=      5-min Rain = 0
KCH1 121144Z 33001KT M04/M10 A3033 RMK A01 T10441096  RH  067%=      5-min Rain = 0
KCH1 121145Z 33001KT M05/M10 A3033 RMK A01 T10461102  RH  065%=      5-min Rain = 0
KCH1 121146Z 33001KT M05/M10 A3033 RMK A01 T10481104  RH  065%=      5-min Rain = 0
KCH1 121147Z 34002KT M05/M11 A3033 RMK A01 T10501105  RH  065%=      5-min Rain = 0
KCH1 121148Z 33002KT M05/M11 A3033 RMK A01 T10511106  RH  065%=      5-min Rain = 0
KCH1 121149Z 33001KT M05/M11 A3033 RMK A01 T10521105  RH  066%=      5-min Rain = 0
KCH1 121150Z 32000KT M05/M11 A3034 RMK A01 T10521105  RH  066%=      5-min Rain = 0
KCH1 121151Z 00000KT M05/M11 A3034 RMK A01 T10531106  RH  066%=      5-min Rain = 0
KCH1 121152Z 32000KT M05/M11 A3034 RMK A01 T10541106  RH  067%=      5-min Rain = 0
KCH1 121153Z 31002KT M05/M11 A3034 RMK A01 T10541105  RH  067%=      5-min Rain = 0
KCH1 121154Z 31003KT M05/M10 A3034 RMK A01 T10531103  RH  068%=      5-min Rain = 0
KCH1 121155Z 30002KT M05/M10 A3034 RMK A01 T10531102  RH  068%=      5-min Rain = 0
KCH1 121156Z 30002KT M05/M10 A3034 RMK A01 T10531104  RH  068%=      5-min Rain = 0
KCH1 121157Z 30002KT M05/M10 A3034 RMK A01 T10531104  RH  067%=      5-min Rain = 0
KCH1 121158Z 30002KT M05/M11 A3034 RMK A01 T10531105  RH  067%=      5-min Rain = 0
KCH1 121159Z 32001KT M05/M11 A3034 RMK A01 T10531105  RH  067%=      5-min Rain = 0
KCH1 121200Z 32002KT M05/M10 A3034 RMK A01 T10531103  RH  068%=      5-min Rain = 0
KCH1 121201Z 33002KT M05/M10 A3034 RMK A01 T10531100  RH  069%=      5-min Rain = 0
KCH1 121202Z 33002KT M05/M10 A3034 RMK A01 T10521099  RH  070%=      5-min Rain = 0
KCH1 121203Z 36002KT M05/M10 A3034 RMK A01 T10521097  RH  071%=      5-min Rain = 0
KCH1 121204Z 02002KT M05/M10 A3034 RMK A01 T10511096  RH  071%=      5-min Rain = 0
KCH1 121205Z 03003KT M05/M10 A3033 RMK A01 T10531101  RH  069%=      5-min Rain = 0
KCH1 121206Z 03003KT M06/M11 A3033 RMK A01 T10551105  RH  068%=      5-min Rain = 0
KCH1 121207Z 02003KT M06/M11 A3033 RMK A01 T10571107  RH  068%=      5-min Rain = 0
KCH1 121208Z 02003KT M06/M11 A3033 RMK A01 T10591107  RH  068%=      5-min Rain = 0
KCH1 121209Z 02002KT M06/M11 A3034 RMK A01 T10601109  RH  068%=      5-min Rain = 0
KCH1 121210Z 35002KT M06/M11 A3034 RMK A01 T10611108  RH  069%=      5-min Rain = 0
KCH1 121211Z 34002KT M06/M11 A3034 RMK A01 T10601106  RH  070%=      5-min Rain = 0
KCH1 121212Z 36001KT M06/M10 A3034 RMK A01 T10591104  RH  071%=      5-min Rain = 0
KCH1 121213Z 33002KT M06/M10 A3034 RMK A01 T10581103  RH  071%=      5-min Rain = 0
KCH1 121214Z 36001KT M06/M10 A3034 RMK A01 T10571101  RH  071%=      5-min Rain = 0
KCH1 121215Z 01001KT M06/M10 A3034 RMK A01 T10561101  RH  071%=      5-min Rain = 0
KCH1 121216Z 35000KT M06/M10 A3034 RMK A01 T10551100  RH  070%=      5-min Rain = 0
KCH1 121217Z 30001KT M05/M10 A3034 RMK A01 T10541102  RH  069%=      5-min Rain = 0
KCH1 121218Z 27001KT M06/M11 A3034 RMK A01 T10561106  RH  068%=      5-min Rain = 0
KCH1 121219Z 28002KT M06/M10 A3035 RMK A01 T10571104  RH  069%=      5-min Rain = 0
KCH1 121220Z 27003KT M06/M10 A3035 RMK A01 T10561101  RH  071%=      5-min Rain = 0
KCH1 121221Z 27003KT M06/M10 A3035 RMK A01 T10551100  RH  071%=      5-min Rain = 0
KCH1 121222Z 28003KT M06/M10 A3035 RMK A01 T10551099  RH  071%=      5-min Rain = 0
KCH1 121223Z 28003KT M06/M10 A3035 RMK A01 T10551098  RH  072%=      5-min Rain = 0
KCH1 121224Z 27003KT M05/M10 A3035 RMK A01 T10541096  RH  072%=      5-min Rain = 0
KCH1 121225Z 26003KT M05/M10 A3035 RMK A01 T10541095  RH  073%=      5-min Rain = 0
KCH1 121226Z 26003KT M05/M10 A3035 RMK A01 T10541095  RH  073%=      5-min Rain = 0
KCH1 121227Z 27003KT M05/M09 A3035 RMK A01 T10531093  RH  073%=      5-min Rain = 0
KCH1 121228Z 27003KT M05/M09 A3035 RMK A01 T10531093  RH  073%=      5-min Rain = 0
KCH1 121229Z 28003KT M05/M09 A3035 RMK A01 T10531094  RH  073%=      5-min Rain = 0
KCH1 121230Z 28002KT M05/M09 A3035 RMK A01 T10531094  RH  073%=      5-min Rain = 0
KCH1 121231Z 29001KT M05/M10 A3035 RMK A01 T10531095  RH  072%=      5-min Rain = 0
KCH1 121232Z 31001KT M05/M10 A3035 RMK A01 T10541097  RH  072%=      5-min Rain = 0
KCH1 121233Z 30001KT M06/M10 A3035 RMK A01 T10551097  RH  072%=      5-min Rain = 0
KCH1 121234Z 29001KT M06/M10 A3034 RMK A01 T10571099  RH  072%=      5-min Rain = 0
KCH1 121235Z 30000KT M06/M10 A3034 RMK A01 T10581100  RH  072%=      5-min Rain = 0
KCH1 121236Z 30000KT M06/M10 A3034 RMK A01 T10591100  RH  073%=      5-min Rain = 0
KCH1 121237Z 01000KT M06/M10 A3034 RMK A01 T10591099  RH  074%=      5-min Rain = 0
KCH1 121238Z 00000KT M06/M10 A3034 RMK A01 T10601100  RH  073%=      5-min Rain = 0
KCH1 121239Z 01001KT M06/M10 A3034 RMK A01 T10611101  RH  073%=      5-min Rain = 0
KCH1 121240Z 04002KT M06/M10 A3034 RMK A01 T10621102  RH  073%=      5-min Rain = 0
KCH1 121241Z 04002KT M06/M10 A3034 RMK A01 T10621103  RH  073%=      5-min Rain = 0
KCH1 121242Z 04002KT M06/M10 A3034 RMK A01 T10621103  RH  073%=      5-min Rain = 0
KCH1 121243Z 04001KT M06/M10 A3034 RMK A01 T10631104  RH  073%=      5-min Rain = 0
KCH1 121244Z 04001KT M06/M10 A3035 RMK A01 T10631104  RH  073%=      5-min Rain = 0
KCH1 121245Z 04000KT M06/M10 A3035 RMK A01 T10631104  RH  072%=      5-min Rain = 0
KCH1 121246Z 00000KT M06/M11 A3035 RMK A01 T10631105  RH  073%=      5-min Rain = 0
KCH1 121247Z 00000KT M06/M10 A3035 RMK A01 T10641104  RH  073%=      5-min Rain = 0
KCH1 121248Z 00000KT M06/M10 A3035 RMK A01 T10641103  RH  074%=      5-min Rain = 0
KCH1 121249Z 33001KT M06/M10 A3035 RMK A01 T10641102  RH  074%=      5-min Rain = 0
KCH1 121250Z 34001KT M06/M10 A3035 RMK A01 T10631101  RH  074%=      5-min Rain = 0
KCH1 121251Z 35001KT M06/M10 A3035 RMK A01 T10621100  RH  074%=      5-min Rain = 0
KCH1 121252Z 00001KT M06/M10 A3035 RMK A01 T10611100  RH  074%=      5-min Rain = 0
KCH1 121253Z 34001KT M06/M10 A3035 RMK A01 T10601100  RH  074%=      5-min Rain = 0
KCH1 121254Z 33001KT M06/M10 A3035 RMK A01 T10591099  RH  073%=      5-min Rain = 0
KCH1 121255Z 35001KT M06/M10 A3035 RMK A01 T10591099  RH  073%=      5-min Rain = 0
KCH1 121256Z 01001KT M06/M10 A3035 RMK A01 T10591099  RH  073%=      5-min Rain = 0
KCH1 121257Z 02001KT M06/M10 A3035 RMK A01 T10591099  RH  073%=      5-min Rain = 0
KCH1 121258Z 02001KT M06/M10 A3035 RMK A01 T10581101  RH  072%=      5-min Rain = 0
KCH1 121259Z 01001KT M06/M10 A3035 RMK A01 T10581102  RH  072%=      5-min Rain = 0
KCH1 121300Z 00002KT M06/M10 A3036 RMK A01 T10581102  RH  071%=      5-min Rain = 0
KCH1 121301Z 36002KT M06/M10 A3036 RMK A01 T10581101  RH  071%=      5-min Rain = 0
KCH1 121302Z 34002KT M06/M10 A3036 RMK A01 T10571100  RH  071%=      5-min Rain = 0
KCH1 121303Z 32003KT M06/M10 A3036 RMK A01 T10571100  RH  071%=      5-min Rain = 0
KCH1 121304Z 31003KT M06/M10 A3036 RMK A01 T10551099  RH  072%=      5-min Rain = 0
KCH1 121305Z 30003KT M05/M10 A3037 RMK A01 T10541097  RH  072%=      5-min Rain = 0
KCH1 121306Z 30003KT M05/M09 A3037 RMK A01 T10521094  RH  072%=      5-min Rain = 0
KCH1 121307Z 30003KT M05/M09 A3036 RMK A01 T10501092  RH  072%=      5-min Rain = 0
KCH1 121308Z 30002KT M05/M09 A3036 RMK A01 T10501093  RH  072%=      5-min Rain = 0
KCH1 121309Z 30001KT M05/M09 A3036 RMK A01 T10501094  RH  071%=      5-min Rain = 0
KCH1 121310Z 31001KT M05/M09 A3036 RMK A01 T10501094  RH  071%=      5-min Rain = 0
KCH1 121311Z 32001KT M05/M10 A3036 RMK A01 T10501095  RH  071%=      5-min Rain = 0
KCH1 121312Z 33002KT M05/M10 A3036 RMK A01 T10511095  RH  071%=      5-min Rain = 0
KCH1 121313Z 32002KT M05/M09 A3036 RMK A01 T10511094  RH  072%=      5-min Rain = 0
KCH1 121314Z 33002KT M05/M09 A3036 RMK A01 T10511092  RH  073%=      5-min Rain = 0
KCH1 121315Z 34002KT M05/M09 A3036 RMK A01 T10501091  RH  073%=      5-min Rain = 0
KCH1 121316Z 02002KT M05/M09 A3036 RMK A01 T10501092  RH  072%=      5-min Rain = 0
KCH1 121317Z 05002KT M05/M10 A3035 RMK A01 T10521097  RH  071%=      5-min Rain = 0
KCH1 121318Z 03002KT M06/M10 A3035 RMK A01 T10551101  RH  070%=      5-min Rain = 0
KCH1 121319Z 35002KT M06/M10 A3036 RMK A01 T10571102  RH  071%=      5-min Rain = 0
KCH1 121320Z 34002KT M06/M10 A3036 RMK A01 T10581102  RH  071%=      5-min Rain = 0
KCH1 121321Z 34003KT M06/M10 A3036 RMK A01 T10581102  RH  071%=      5-min Rain = 0
KCH1 121322Z 35003KT M06/M10 A3035 RMK A01 T10581101  RH  072%=      5-min Rain = 0
KCH1 121323Z 35003KT M06/M10 A3035 RMK A01 T10571099  RH  072%=      5-min Rain = 0
KCH1 121324Z 35003KT M06/M10 A3035 RMK A01 T10561098  RH  072%=      5-min Rain = 0
KCH1 121325Z 34002KT M06/M10 A3035 RMK A01 T10551098  RH  072%=      5-min Rain = 0
KCH1 121326Z 33002KT M06/M10 A3036 RMK A01 T10551099  RH  071%=      5-min Rain = 0
KCH1 121327Z 31002KT M06/M10 A3036 RMK A01 T10551099  RH  071%=      5-min Rain = 0
KCH1 121328Z 31002KT M06/M10 A3036 RMK A01 T10551099  RH  071%=      5-min Rain = 0
KCH1 121329Z 32001KT M06/M10 A3036 RMK A01 T10561099  RH  071%=      5-min Rain = 0
KCH1 121330Z 32001KT M06/M10 A3035 RMK A01 T10561099  RH  072%=      5-min Rain = 0
KCH1 121331Z 32001KT M06/M10 A3035 RMK A01 T10561100  RH  071%=      5-min Rain = 0
KCH1 121332Z 32001KT M06/M10 A3036 RMK A01 T10561100  RH  071%=      5-min Rain = 0
KCH1 121333Z 33001KT M05/M10 A3036 RMK A01 T10541099  RH  071%=      5-min Rain = 0
KCH1 121334Z 33001KT M05/M10 A3036 RMK A01 T10541098  RH  071%=      5-min Rain = 0
KCH1 121335Z 00000KT M05/M10 A3036 RMK A01 T10531098  RH  071%=      5-min Rain = 0
KCH1 121336Z 00000KT M05/M10 A3036 RMK A01 T10531097  RH  071%=      5-min Rain = 0
KCH1 121337Z 29001KT M05/M10 A3037 RMK A01 T10531097  RH  071%=      5-min Rain = 0
KCH1 121338Z 29001KT M05/M10 A3037 RMK A01 T10531097  RH  071%=      5-min Rain = 0
KCH1 121339Z 29001KT M05/M10 A3036 RMK A01 T10521096  RH  071%=      5-min Rain = 0
KCH1 121340Z 00000KT M05/M10 A3036 RMK A01 T10521095  RH  072%=      5-min Rain = 0
KCH1 121341Z 04001KT M05/M10 A3036 RMK A01 T10511095  RH  071%=      5-min Rain = 0
KCH1 121342Z 04001KT M05/M10 A3036 RMK A01 T10511095  RH  072%=      5-min Rain = 0
KCH1 121343Z 05001KT M05/M10 A3035 RMK A01 T10521095  RH  072%=      5-min Rain = 0
KCH1 121344Z 05002KT M05/M10 A3035 RMK A01 T10521095  RH  072%=      5-min Rain = 0
KCH1 121345Z 04002KT M05/M10 A3035 RMK A01 T10531096  RH  072%=      5-min Rain = 0
KCH1 121346Z 04003KT M05/M10 A3035 RMK A01 T10531096  RH  071%=      5-min Rain = 0
KCH1 121347Z 06003KT M05/M10 A3035 RMK A01 T10531097  RH  072%=      5-min Rain = 0
KCH1 121348Z 06003KT M05/M10 A3035 RMK A01 T10531096  RH  072%=      5-min Rain = 0
KCH1 121349Z 06003KT M05/M10 A3035 RMK A01 T10531096  RH  072%=      5-min Rain = 0
KCH1 121350Z 06002KT M05/M10 A3035 RMK A01 T10531098  RH  071%=      5-min Rain = 0
KCH1 121351Z 04001KT M05/M10 A3035 RMK A01 T10541100  RH  070%=      5-min Rain = 0
KCH1 121352Z 35000KT M05/M10 A3036 RMK A01 T10541100  RH  070%=      5-min Rain = 0
KCH1 121353Z 34001KT M05/M10 A3036 RMK A01 T10541100  RH  070%=      5-min Rain = 0
KCH1 121354Z 36003KT M05/M10 A3036 RMK A01 T10541100  RH  070%=      5-min Rain = 0
KCH1 121355Z 01003KT M05/M10 A3035 RMK A01 T10541100  RH  070%=      5-min Rain = 0
KCH1 121356Z 02004KT M05/M10 A3035 RMK A01 T10541099  RH  070%=      5-min Rain = 0
KCH1 121357Z 03003KT M05/M10 A3035 RMK A01 T10531099  RH  070%=      5-min Rain = 0
KCH1 121358Z 03003KT M05/M10 A3035 RMK A01 T10531098  RH  070%=      5-min Rain = 0
KCH1 121359Z 04003KT M05/M10 A3035 RMK A01 T10531098  RH  070%=      5-min Rain = 0
KCH1 121400Z 05002KT M05/M10 A3035 RMK A01 T10531099  RH  070%=      5-min Rain = 0
KCH1 121401Z 05002KT M05/M10 A3035 RMK A01 T10531098  RH  070%=      5-min Rain = 0
KCH1 121402Z 05002KT M05/M10 A3035 RMK A01 T10531099  RH  070%=      5-min Rain = 0
KCH1 121403Z 05002KT M05/M10 A3035 RMK A01 T10531098  RH  070%=      5-min Rain = 0
KCH1 121404Z 05002KT M05/M10 A3035 RMK A01 T10521098  RH  070%=      5-min Rain = 0
KCH1 121405Z 05002KT M05/M10 A3035 RMK A01 T10511096  RH  071%=      5-min Rain = 0
KCH1 121406Z 05002KT M05/M10 A3035 RMK A01 T10511096  RH  070%=      5-min Rain = 0
KCH1 121407Z 05001KT M05/M10 A3035 RMK A01 T10501095  RH  070%=      5-min Rain = 0
KCH1 121408Z 06002KT M05/M09 A3035 RMK A01 T10481094  RH  070%=      5-min Rain = 0
KCH1 121409Z 07002KT M05/M09 A3035 RMK A01 T10471093  RH  070%=      5-min Rain = 0
KCH1 121410Z 08002KT M05/M09 A3035 RMK A01 T10451093  RH  069%=      5-min Rain = 0
KCH1 121411Z 08003KT M04/M09 A3035 RMK A01 T10441093  RH  069%=      5-min Rain = 0
KCH1 121412Z 08002KT M04/M09 A3035 RMK A01 T10431093  RH  068%=      5-min Rain = 0
KCH1 121413Z 08002KT M04/M09 A3035 RMK A01 T10431094  RH  068%=      5-min Rain = 0
KCH1 121414Z 08002KT M04/M10 A3035 RMK A01 T10431095  RH  067%=      5-min Rain = 0
KCH1 121415Z 08001KT M04/M10 A3035 RMK A01 T10421095  RH  067%=      5-min Rain = 0
KCH1 121416Z 08002KT M04/M10 A3035 RMK A01 T10411096  RH  066%=      5-min Rain = 0
KCH1 121417Z 08002KT M04/M10 A3035 RMK A01 T10411096  RH  065%=      5-min Rain = 0
KCH1 121418Z 08002KT M04/M10 A3035 RMK A01 T10401097  RH  064%=      5-min Rain = 0
KCH1 121419Z 07002KT M04/M10 A3036 RMK A01 T10391098  RH  064%=      5-min Rain = 0
KCH1 121420Z 07000KT M04/M10 A3036 RMK A01 T10391098  RH  063%=      5-min Rain = 0
KCH1 121421Z 00000KT M04/M10 A3036 RMK A01 T10381097  RH  063%=      5-min Rain = 0
KCH1 121422Z 31000KT M04/M10 A3036 RMK A01 T10361097  RH  063%=      5-min Rain = 0
KCH1 121423Z 30001KT M04/M10 A3036 RMK A01 T10361098  RH  062%=      5-min Rain = 0
KCH1 121424Z 31000KT M03/M10 A3036 RMK A01 T10341097  RH  062%=      5-min Rain = 0
KCH1 121425Z 35000KT M03/M10 A3036 RMK A01 T10331097  RH  062%=      5-min Rain = 0
KCH1 121426Z 35001KT M03/M10 A3036 RMK A01 T10321098  RH  061%=      5-min Rain = 0
KCH1 121427Z 01002KT M03/M10 A3036 RMK A01 T10311097  RH  061%=      5-min Rain = 0
KCH1 121428Z 00002KT M03/M10 A3036 RMK A01 T10311098  RH  060%=      5-min Rain = 0
KCH1 121429Z 01002KT M03/M10 A3036 RMK A01 T10301099  RH  059%=      5-min Rain = 0
KCH1 121430Z 36002KT M03/M10 A3036 RMK A01 T10281098  RH  059%=      5-min Rain = 0
KCH1 121431Z 36002KT M03/M10 A3037 RMK A01 T10271096  RH  059%=      5-min Rain = 0
KCH1 121432Z 01002KT M03/M10 A3037 RMK A01 T10251097  RH  058%=      5-min Rain = 0
KCH1 121433Z 01002KT M03/M10 A3037 RMK A01 T10251100  RH  056%=      5-min Rain = 0
KCH1 121434Z 34001KT M02/M10 A3037 RMK A01 T10241100  RH  056%=      5-min Rain = 0
KCH1 121435Z 01002KT M02/M10 A3037 RMK A01 T10231099  RH  056%=      5-min Rain = 0
KCH1 121436Z 00002KT M02/M10 A3037 RMK A01 T10211099  RH  055%=      5-min Rain = 0
KCH1 121437Z 00002KT M02/M10 A3037 RMK A01 T10201100  RH  054%=      5-min Rain = 0
KCH1 121438Z 00003KT M02/M10 A3037 RMK A01 T10191101  RH  053%=      5-min Rain = 0
KCH1 121439Z 02002KT M02/M10 A3037 RMK A01 T10181101  RH  053%=      5-min Rain = 0
KCH1 121440Z 05001KT M02/M10 A3037 RMK A01 T10161100  RH  053%=      5-min Rain = 0
KCH1 121441Z 06002KT M01/M10 A3037 RMK A01 T10141099  RH  052%=      5-min Rain = 0
KCH1 121442Z 07002KT M01/M10 A3036 RMK A01 T10131100  RH  052%=      5-min Rain = 0
KCH1 121443Z 06004KT M01/M10 A3036 RMK A01 T10111099  RH  051%=      5-min Rain = 0
KCH1 121444Z 07004KT M01/M10 A3036 RMK A01 T10111100  RH  051%=      5-min Rain = 0
KCH1 121445Z 09006KT M01/M10 A3036 RMK A01 T10101098  RH  051%=      5-min Rain = 0
KCH1 121446Z 08004KT M01/M10 A3036 RMK A01 T10101100  RH  050%=      5-min Rain = 0
KCH1 121447Z 07004KT M01/M10 A3036 RMK A01 T10091099  RH  051%=      5-min Rain = 0
KCH1 121448Z 09003KT M01/M10 A3036 RMK A01 T10071098  RH  050%=      5-min Rain = 0
KCH1 121449Z 09005KT M01/M10 A3036 RMK A01 T10061099  RH  050%=      5-min Rain = 0
KCH1 121450Z 10005KT M01/M10 A3036 RMK A01 T10061100  RH  049%=      5-min Rain = 0
KCH1 121451Z 10005KT M01/M10 A3036 RMK A01 T10071100  RH  049%=      5-min Rain = 0
KCH1 121452Z 10005KT M01/M10 A3036 RMK A01 T10071101  RH  049%=      5-min Rain = 0
KCH1 121453Z 10005KT M01/M10 A3036 RMK A01 T10071101  RH  049%=      5-min Rain = 0
KCH1 121454Z 10005KT M01/M10 A3036 RMK A01 T10061100  RH  049%=      5-min Rain = 0
KCH1 121455Z 08004KT M00/M10 A3036 RMK A01 T10041099  RH  049%=      5-min Rain = 0
KCH1 121456Z 08005KT M00/M10 A3036 RMK A01 T10021099  RH  048%=      5-min Rain = 0
KCH1 121457Z 08007KT M00/M10 A3036 RMK A01 T10031102  RH  047%=      5-min Rain = 0
KCH1 121458Z 08006KT M01/M11 A3036 RMK A01 T10051105  RH  047%=      5-min Rain = 0
KCH1 121459Z 08005KT M01/M11 A3036 RMK A01 T10061106  RH  047%=      5-min Rain = 0
KCH1 121500Z 07008KT M01/M11 A3036 RMK A01 T10061106  RH  047%=      5-min Rain = 0
KCH1 121501Z 08008KT M01/M11 A3036 RMK A01 T10061105  RH  047%=      5-min Rain = 0
KCH1 121502Z 08008KT M01/M11 A3036 RMK A01 T10061105  RH  047%=      5-min Rain = 0
KCH1 121503Z 08008KT M01/M11 A3036 RMK A01 T10061105  RH  047%=      5-min Rain = 0
KCH1 121504Z 08009KT M01/M11 A3036 RMK A01 T10051105  RH  047%=      5-min Rain = 0
KCH1 121505Z 08008KT M00/M11 A3036 RMK A01 T10041105  RH  046%=      5-min Rain = 0
KCH1 121506Z 08009KT M00/M11 A3036 RMK A01 T10041106  RH  046%=      5-min Rain = 0
KCH1 121507Z 09007KT M00/M11 A3036 RMK A01 T10041106  RH  046%=      5-min Rain = 0
KCH1 121508Z 10005KT M00/M10 A3037 RMK A01 T10041104  RH  047%=      5-min Rain = 0
KCH1 121509Z 08007KT M00/M10 A3037 RMK A01 T10021103  RH  047%=      5-min Rain = 0
KCH1 121510Z 08007KT M00/M11 A3037 RMK A01 T10021105  RH  046%=      5-min Rain = 0
KCH1 121511Z 09008KT M00/M11 A3037 RMK A01 T10021105  RH  046%=      5-min Rain = 0
KCH1 121512Z 10008KT M00/M11 A3037 RMK A01 T10011105  RH  045%=      5-min Rain = 0
KCH1 121513Z 10009KT 00/M10 A3037 RMK A01 T00011104  RH  045%=      5-min Rain = 0
KCH1 121514Z 10010KT 00/M10 A3036 RMK A01 T00041102  RH  045%=      5-min Rain = 0
KCH1 121515Z 10009KT 01/M10 A3036 RMK A01 T00061101  RH  044%=      5-min Rain = 0
KCH1 121516Z 10009KT 01/M10 A3036 RMK A01 T00091101  RH  044%=      5-min Rain = 0
KCH1 121517Z 10007G12KT 01/M10 A3036 RMK A01 T00091102  RH  043%=      5-min Rain = 0
KCH1 121518Z 10010KT 01/M10 A3036 RMK A01 T00101102  RH  043%=      5-min Rain = 0
KCH1 121519Z 10011KT 01/M10 A3036 RMK A01 T00111102  RH  043%=      5-min Rain = 0
KCH1 121520Z 11009KT 01/M10 A3036 RMK A01 T00111104  RH  042%=      5-min Rain = 0
KCH1 121521Z 10009KT 01/M10 A3036 RMK A01 T00101104  RH  042%=      5-min Rain = 0
KCH1 121522Z 11010KT 01/M10 A3036 RMK A01 T00121103  RH  042%=      5-min Rain = 0
KCH1 121523Z 11012KT 01/M10 A3036 RMK A01 T00131104  RH  041%=      5-min Rain = 0
KCH1 121524Z 11011KT 01/M11 A3036 RMK A01 T00121105  RH  041%=      5-min Rain = 0
KCH1 121525Z 10011KT 01/M11 A3036 RMK A01 T00101106  RH  042%=      5-min Rain = 0
KCH1 121526Z 09011KT 01/M11 A3036 RMK A01 T00091106  RH  042%=      5-min Rain = 0
KCH1 121527Z 09011KT 01/M11 A3036 RMK A01 T00081107  RH  042%=      5-min Rain = 0
KCH1 121528Z 09007KT 01/M11 A3036 RMK A01 T00081106  RH  043%=      5-min Rain = 0
KCH1 121529Z 10008KT 01/M10 A3037 RMK A01 T00091104  RH  043%=      5-min Rain = 0
KCH1 121530Z 11010KT 01/M10 A3037 RMK A01 T00111103  RH  042%=      5-min Rain = 0
KCH1 121531Z 11011KT 01/M11 A3037 RMK A01 T00121105  RH  041%=      5-min Rain = 0
KCH1 121532Z 10008KT 01/M11 A3037 RMK A01 T00111105  RH  041%=      5-min Rain = 0
KCH1 121533Z 10008KT 01/M10 A3037 RMK A01 T00131103  RH  042%=      5-min Rain = 0
KCH1 121534Z 10009KT 02/M10 A3037 RMK A01 T00161101  RH  041%=      5-min Rain = 0
KCH1 121535Z 10009KT 02/M10 A3037 RMK A01 T00171103  RH  041%=      5-min Rain = 0
KCH1 121536Z 12010KT 02/M11 A3037 RMK A01 T00151105  RH  040%=      5-min Rain = 0
KCH1 121537Z 11008KT 01/M11 A3037 RMK A01 T00131106  RH  041%=      5-min Rain = 0
KCH1 121538Z 11008KT 01/M11 A3037 RMK A01 T00121106  RH  041%=      5-min Rain = 0
KCH1 121539Z 10009KT 01/M11 A3037 RMK A01 T00121105  RH  041%=      5-min Rain = 0
KCH1 121540Z 09008KT 01/M10 A3037 RMK A01 T00141103  RH  042%=      5-min Rain = 0
KCH1 121541Z 10010KT 02/M10 A3037 RMK A01 T00181100  RH  041%=      5-min Rain = 0
KCH1 121542Z 10012KT 02/M10 A3037 RMK A01 T00201102  RH  040%=      5-min Rain = 0
KCH1 121543Z 09012KT 02/M10 A3037 RMK A01 T00191104  RH  040%=      5-min Rain = 0
KCH1 121544Z 10010KT 02/M10 A3037 RMK A01 T00181104  RH  040%=      5-min Rain = 0
KCH1 121545Z 10011KT 02/M11 A3037 RMK A01 T00171105  RH  040%=      5-min Rain = 0
KCH1 121546Z 10011KT 02/M10 A3037 RMK A01 T00171104  RH  040%=      5-min Rain = 0
KCH1 121547Z 10011KT 02/M11 A3037 RMK A01 T00171105  RH  040%=      5-min Rain = 0
KCH1 121548Z 11010KT 02/M11 A3037 RMK A01 T00161105  RH  040%=      5-min Rain = 0
KCH1 121549Z 11011KT 02/M11 A3037 RMK A01 T00161105  RH  040%=      5-min Rain = 0
KCH1 121550Z 10011KT 02/M10 A3037 RMK A01 T00171104  RH  040%=      5-min Rain = 0
KCH1 121551Z 10011KT 02/M10 A3037 RMK A01 T00181104  RH  040%=      5-min Rain = 0
KCH1 121552Z 10011KT 02/M10 A3037 RMK A01 T00171104  RH  040%=      5-min Rain = 0
KCH1 121553Z 09010KT 02/M10 A3037 RMK A01 T00181104  RH  040%=      5-min Rain = 0
KCH1 121554Z 10011KT 02/M11 A3037 RMK A01 T00171105  RH  040%=      5-min Rain = 0
KCH1 121555Z 09012KT 02/M10 A3037 RMK A01 T00191103  RH  040%=      5-min Rain = 0
KCH1 121556Z 10011KT 02/M11 A3037 RMK A01 T00191106  RH  039%=      5-min Rain = 0
KCH1 121557Z 10011KT 02/M11 A3037 RMK A01 T00181105  RH  040%=      5-min Rain = 0
KCH1 121558Z 10010KT 02/M10 A3037 RMK A01 T00191104  RH  040%=      5-min Rain = 0
KCH1 121559Z 10007KT 02/M10 A3037 RMK A01 T00191104  RH  040%=      5-min Rain = 0
KCH1 121600Z 09010KT 02/M10 A3037 RMK A01 T00211102  RH  040%=      5-min Rain = 0
KCH1 121601Z 10012KT 02/M10 A3037 RMK A01 T00221103  RH  039%=      5-min Rain = 0
KCH1 121602Z 11011KT 02/M10 A3037 RMK A01 T00211104  RH  039%=      5-min Rain = 0
KCH1 121603Z 10009KT 02/M10 A3037 RMK A01 T00211104  RH  039%=      5-min Rain = 0
KCH1 121604Z 09008KT 02/M10 A3037 RMK A01 T00221102  RH  039%=      5-min Rain = 0
KCH1 121605Z 09010KT 03/M10 A3037 RMK A01 T00251102  RH  039%=      5-min Rain = 0
KCH1 121606Z 08010KT 02/M11 A3037 RMK A01 T00231105  RH  038%=      5-min Rain = 0
KCH1 121607Z 09010KT 02/M11 A3037 RMK A01 T00211105  RH  039%=      5-min Rain = 0
KCH1 121608Z 11010KT 02/M10 A3037 RMK A01 T00211104  RH  039%=      5-min Rain = 0
KCH1 121609Z 12009KT 02/M10 A3037 RMK A01 T00221103  RH  039%=      5-min Rain = 0
KCH1 121610Z 10011KT 02/M10 A3038 RMK A01 T00231103  RH  039%=      5-min Rain = 0
KCH1 121611Z 10010KT 02/M10 A3038 RMK A01 T00231103  RH  039%=      5-min Rain = 0
KCH1 121612Z 10010KT 02/M10 A3038 RMK A01 T00231103  RH  039%=      5-min Rain = 0
KCH1 121613Z 09010KT 02/M10 A3038 RMK A01 T00241102  RH  039%=      5-min Rain = 0
KCH1 121614Z 09010KT 03/M10 A3038 RMK A01 T00261101  RH  039%=      5-min Rain = 0
KCH1 121615Z 09009KT 03/M10 A3038 RMK A01 T00261102  RH  038%=      5-min Rain = 0
KCH1 121616Z 08010KT 03/M10 A3038 RMK A01 T00251102  RH  038%=      5-min Rain = 0
KCH1 121617Z 08008KT 02/M10 A3038 RMK A01 T00231103  RH  039%=      5-min Rain = 0
KCH1 121618Z 10008KT 02/M10 A3038 RMK A01 T00231101  RH  039%=      5-min Rain = 0
KCH1 121619Z 09010KT 03/M10 A3038 RMK A01 T00271099  RH  039%=      5-min Rain = 0
KCH1 121620Z 09010KT 03/M10 A3038 RMK A01 T00291100  RH  038%=      5-min Rain = 0
KCH1 121621Z 09009KT 03/M10 A3038 RMK A01 T00281101  RH  038%=      5-min Rain = 0
KCH1 121622Z 10010KT 03/M10 A3038 RMK A01 T00301099  RH  038%=      5-min Rain = 0
KCH1 121623Z 10007KT 03/M10 A3038 RMK A01 T00301100  RH  038%=      5-min Rain = 0
KCH1 121624Z 10007KT 03/M10 A3038 RMK A01 T00301100  RH  038%=      5-min Rain = 0
KCH1 121625Z 11010KT 03/M10 A3038 RMK A01 T00311100  RH  038%=      5-min Rain = 0
KCH1 121626Z 09007KT 03/M10 A3038 RMK A01 T00321099  RH  038%=      5-min Rain = 0
KCH1 121627Z 11008KT 03/M10 A3038 RMK A01 T00341098  RH  037%=      5-min Rain = 0
KCH1 121628Z 12008KT 03/M10 A3038 RMK A01 T00331101  RH  037%=      5-min Rain = 0
KCH1 121629Z 12006KT 03/M10 A3038 RMK A01 T00301101  RH  037%=      5-min Rain = 0
KCH1 121630Z 12009KT 03/M10 A3038 RMK A01 T00311099  RH  038%=      5-min Rain = 0
KCH1 121631Z 10008KT 03/M10 A3038 RMK A01 T00321099  RH  038%=      5-min Rain = 0
KCH1 121632Z 10009KT 03/M10 A3038 RMK A01 T00321100  RH  037%=      5-min Rain = 0
KCH1 121633Z 10008KT 03/M10 A3038 RMK A01 T00311100  RH  038%=      5-min Rain = 0
KCH1 121634Z 10006KT 03/M10 A3038 RMK A01 T00301100  RH  038%=      5-min Rain = 0
KCH1 121635Z 12007KT 03/M10 A3038 RMK A01 T00301100  RH  038%=      5-min Rain = 0
KCH1 121636Z 13010KT 03/M10 A3038 RMK A01 T00321098  RH  038%=      5-min Rain = 0
KCH1 121637Z 12009KT 03/M10 A3038 RMK A01 T00301102  RH  037%=      5-min Rain = 0
KCH1 121638Z 09007KT 03/M10 A3038 RMK A01 T00291100  RH  038%=      5-min Rain = 0
KCH1 121639Z 10007KT 03/M10 A3038 RMK A01 T00321098  RH  038%=      5-min Rain = 0
KCH1 121640Z 11009KT 04/M10 A3038 RMK A01 T00351097  RH  037%=      5-min Rain = 0
KCH1 121641Z 12009KT 04/M10 A3038 RMK A01 T00351100  RH  037%=      5-min Rain = 0
KCH1 121642Z 13009KT 03/M10 A3038 RMK A01 T00331101  RH  037%=      5-min Rain = 0
KCH1 121643Z 11007KT 03/M10 A3038 RMK A01 T00311101  RH  037%=      5-min Rain = 0
KCH1 121644Z 10007KT 03/M10 A3038 RMK A01 T00311100  RH  038%=      5-min Rain = 0
KCH1 121645Z 08009KT 03/M10 A3038 RMK A01 T00331099  RH  037%=      5-min Rain = 0
KCH1 121646Z 10009KT 04/M10 A3038 RMK A01 T00361097  RH  037%=      5-min Rain = 0
KCH1 121647Z 11009KT 04/M10 A3038 RMK A01 T00381098  RH  036%=      5-min Rain = 0
KCH1 121648Z 12010KT 04/M10 A3038 RMK A01 T00391098  RH  036%=      5-min Rain = 0
KCH1 121649Z 12008KT 04/M10 A3038 RMK A01 T00361101  RH  036%=      5-min Rain = 0
KCH1 121650Z 11007KT 03/M10 A3038 RMK A01 T00341101  RH  037%=      5-min Rain = 0
KCH1 121651Z 10009KT 04/M10 A3038 RMK A01 T00351098  RH  037%=      5-min Rain = 0
KCH1 121652Z 09013KT 04/M10 A3038 RMK A01 T00381097  RH  037%=      5-min Rain = 0
KCH1 121653Z 10011KT 04/M10 A3038 RMK A01 T00371100  RH  036%=      5-min Rain = 0
KCH1 121654Z 10009KT 04/M10 A3038 RMK A01 T00371098  RH  037%=      5-min Rain = 0
KCH1 121655Z 11008KT 04/M10 A3038 RMK A01 T00361100  RH  036%=      5-min Rain = 0
KCH1 121656Z 10009KT 04/M10 A3038 RMK A01 T00351099  RH  037%=      5-min Rain = 0
KCH1 121657Z 12012KT 04/M10 A3038 RMK A01 T00361098  RH  037%=      5-min Rain = 0
KCH1 121658Z 12009KT 04/M10 A3038 RMK A01 T00391096  RH  037%=      5-min Rain = 0
KCH1 121659Z 12007KT 04/M09 A3038 RMK A01 T00441093  RH  036%=      5-min Rain = 0
KCH1 121700Z 13010KT 05/M09 A3038 RMK A01 T00481093  RH  035%=      5-min Rain = 0
KCH1 121701Z 12007KT 05/M10 A3038 RMK A01 T00481095  RH  034%=      5-min Rain = 0
KCH1 121702Z 10009KT 05/M10 A3038 RMK A01 T00451097  RH  035%=      5-min Rain = 0
KCH1 121703Z 08010KT 04/M10 A3038 RMK A01 T00431098  RH  035%=      5-min Rain = 0
KCH1 121704Z 07010KT 04/M10 A3038 RMK A01 T00401100  RH  035%=      5-min Rain = 0
KCH1 121705Z 12009KT 04/M10 A3038 RMK A01 T00401097  RH  036%=      5-min Rain = 0
KCH1 121706Z 12007KT 04/M10 A3038 RMK A01 T00421096  RH  036%=      5-min Rain = 0
KCH1 121707Z 13009KT 05/M10 A3038 RMK A01 T00451095  RH  035%=      5-min Rain = 0
KCH1 121708Z 12006KT 04/M10 A3038 RMK A01 T00421098  RH  035%=      5-min Rain = 0
KCH1 121709Z 09008KT 04/M10 A3038 RMK A01 T00421096  RH  036%=      5-min Rain = 0
KCH1 121710Z 11006KT 04/M10 A3038 RMK A01 T00431097  RH  036%=      5-min Rain = 0
KCH1 121711Z 08008G14KT 04/M09 A3038 RMK A01 T00441094  RH  036%=      5-min Rain = 0
KCH1 121712Z 11011KT 05/M10 A3038 RMK A01 T00461095  RH  035%=      5-min Rain = 0
KCH1 121713Z 11010KT 05/M10 A3038 RMK A01 T00451097  RH  035%=      5-min Rain = 0
KCH1 121714Z 11010KT 05/M10 A3038 RMK A01 T00451096  RH  035%=      5-min Rain = 0
KCH1 121715Z 12008KT 04/M10 A3038 RMK A01 T00441097  RH  035%=      5-min Rain = 0
KCH1 121716Z 10006KT 04/M10 A3038 RMK A01 T00421096  RH  036%=      5-min Rain = 0
KCH1 121717Z 13007KT 04/M10 A3038 RMK A01 T00431096  RH  036%=      5-min Rain = 0
KCH1 121718Z 13007KT 04/M10 A3038 RMK A01 T00431095  RH  036%=      5-min Rain = 0
KCH1 121719Z 14006KT 04/M10 A3037 RMK A01 T00441095  RH  036%=      5-min Rain = 0
KCH1 121720Z 13007KT 04/M10 A3037 RMK A01 T00441095  RH  035%=      5-min Rain = 0
KCH1 121721Z 12009KT 05/M09 A3037 RMK A01 T00461094  RH  035%=      5-min Rain = 0
KCH1 121722Z 15008KT 05/M10 A3037 RMK A01 T00461096  RH  035%=      5-min Rain = 0
KCH1 121723Z 15008KT 05/M09 A3037 RMK A01 T00471094  RH  035%=      5-min Rain = 0
KCH1 121724Z 11008KT 05/M10 A3037 RMK A01 T00471095  RH  035%=      5-min Rain = 0
KCH1 121725Z 13008KT 05/M09 A3037 RMK A01 T00481094  RH  035%=      5-min Rain = 0
KCH1 121726Z 14008KT 05/M10 A3037 RMK A01 T00471097  RH  035%=      5-min Rain = 0
KCH1 121727Z 09010KT 05/M09 A3037 RMK A01 T00471094  RH  035%=      5-min Rain = 0
KCH1 121728Z 09006KT 05/M09 A3037 RMK A01 T00501093  RH  035%=      5-min Rain = 0
KCH1 121729Z 11011KT 05/M09 A3037 RMK A01 T00521092  RH  034%=      5-min Rain = 0
KCH1 121730Z 12007KT 05/M09 A3037 RMK A01 T00521094  RH  034%=      5-min Rain = 0
KCH1 121731Z 13009KT 05/M10 A3037 RMK A01 T00491096  RH  034%=      5-min Rain = 0
KCH1 121732Z 13007KT 05/M10 A3037 RMK A01 T00471096  RH  034%=      5-min Rain = 0
KCH1 121733Z 15007KT 05/M10 A3037 RMK A01 T00461096  RH  035%=      5-min Rain = 0
KCH1 121734Z 16007KT 05/M10 A3037 RMK A01 T00461095  RH  035%=      5-min Rain = 0
KCH1 121735Z 12006KT 05/M09 A3037 RMK A01 T00471094  RH  035%=      5-min Rain = 0
KCH1 121736Z 12007KT 05/M09 A3037 RMK A01 T00491094  RH  035%=      5-min Rain = 0
KCH1 121737Z 11005KT 05/M09 A3037 RMK A01 T00491093  RH  035%=      5-min Rain = 0
KCH1 121738Z 12007KT 05/M09 A3037 RMK A01 T00531091  RH  034%=      5-min Rain = 0
KCH1 121739Z 10004KT 05/M09 A3037 RMK A01 T00511094  RH  034%=      5-min Rain = 0
KCH1 121740Z 11006KT 05/M09 A3037 RMK A01 T00531090  RH  035%=      5-min Rain = 0
KCH1 121741Z 08011KT 06/M09 A3036 RMK A01 T00571091  RH  034%=      5-min Rain = 0
KCH1 121742Z 09011KT 06/M09 A3036 RMK A01 T00571093  RH  033%=      5-min Rain = 0
KCH1 121743Z 09009KT 06/M10 A3036 RMK A01 T00551095  RH  033%=      5-min Rain = 0
KCH1 121744Z 09009KT 05/M09 A3036 RMK A01 T00531094  RH  034%=      5-min Rain = 0
KCH1 121745Z 08007KT 05/M09 A3036 RMK A01 T00531094  RH  034%=      5-min Rain = 0
KCH1 121746Z 07005KT 05/M10 A3036 RMK A01 T00501096  RH  034%=      5-min Rain = 0
KCH1 121747Z 06005KT 05/M09 A3036 RMK A01 T00501093  RH  035%=      5-min Rain = 0
KCH1 121748Z 08008G13KT 06/M09 A3036 RMK A01 T00551089  RH  034%=      5-min Rain = 0
KCH1 121749Z 08010KT 06/M09 A3036 RMK A01 T00591090  RH  033%=      5-min Rain = 0
KCH1 121750Z 08009KT 06/M09 A3036 RMK A01 T00581093  RH  033%=      5-min Rain = 0
KCH1 121751Z 08010KT 06/M09 A3036 RMK A01 T00581092  RH  033%=      5-min Rain = 0
KCH1 121752Z 09008KT 06/M09 A3036 RMK A01 T00611090  RH  033%=      5-min Rain = 0
KCH1 121753Z 10008KT 06/M09 A3036 RMK A01 T00641089  RH  033%=      5-min Rain = 0
KCH1 121754Z 10008KT 06/M09 A3036 RMK A01 T00611093  RH  032%=      5-min Rain = 0
KCH1 121755Z 09007KT 06/M09 A3036 RMK A01 T00571094  RH  033%=      5-min Rain = 0
KCH1 121756Z 10006KT 06/M09 A3035 RMK A01 T00551094  RH  033%=      5-min Rain = 0
KCH1 121757Z 08006KT 05/M09 A3035 RMK A01 T00541092  RH  034%=      5-min Rain = 0
KCH1 121758Z 12005KT 06/M09 A3035 RMK A01 T00571091  RH  034%=      5-min Rain = 0
KCH1 121759Z 10004KT 06/M09 A3035 RMK A01 T00581090  RH  034%=      5-min Rain = 0
KCH1 121800Z 08008KT 06/M09 A3035 RMK A01 T00611090  RH  033%=      5-min Rain = 0
KCH1 121801Z 10009KT 06/M09 A3035 RMK A01 T00611091  RH  033%=      5-min Rain = 0
KCH1 121802Z 11008KT 06/M09 A3035 RMK A01 T00611091  RH  033%=      5-min Rain = 0
KCH1 121803Z 13009KT 06/M09 A3035 RMK A01 T00611089  RH  033%=      5-min Rain = 0
KCH1 121804Z 11005KT 06/M09 A3035 RMK A01 T00631090  RH  033%=      5-min Rain = 0
KCH1 121805Z 12010KT 06/M09 A3035 RMK A01 T00631090  RH  033%=      5-min Rain = 0
KCH1 121806Z 14010KT 06/M09 A3035 RMK A01 T00611091  RH  033%=      5-min Rain = 0
KCH1 121807Z 14008KT 06/M09 A3035 RMK A01 T00601091  RH  033%=      5-min Rain = 0
KCH1 121808Z 12007KT 06/M09 A3035 RMK A01 T00621088  RH  033%=      5-min Rain = 0
KCH1 121809Z 10007KT 06/M09 A3035 RMK A01 T00641088  RH  033%=      5-min Rain = 0
KCH1 121810Z 09005KT 06/M09 A3035 RMK A01 T00621091  RH  032%=      5-min Rain = 0
KCH1 121811Z 09004KT 06/M09 A3034 RMK A01 T00601091  RH  033%=      5-min Rain = 0
KCH1 121812Z 10007KT 06/M09 A3034 RMK A01 T00601089  RH  033%=      5-min Rain = 0
KCH1 121813Z 11010KT 07/M08 A3034 RMK A01 T00661084  RH  033%=      5-min Rain = 0
KCH1 121814Z 12010KT 07/M09 A3034 RMK A01 T00701085  RH  032%=      5-min Rain = 0
KCH1 121815Z 12010KT 07/M09 A3034 RMK A01 T00691086  RH  032%=      5-min Rain = 0
KCH1 121816Z 11010KT 07/M09 A3034 RMK A01 T00671087  RH  032%=      5-min Rain = 0
KCH1 121817Z 10008KT 07/M09 A3034 RMK A01 T00671087  RH  032%=      5-min Rain = 0
KCH1 121818Z 13006KT 07/M09 A3034 RMK A01 T00661088  RH  032%=      5-min Rain = 0
KCH1 121819Z 14004KT 06/M09 A3034 RMK A01 T00641088  RH  033%=      5-min Rain = 0
KCH1 121820Z 14005KT 06/M09 A3034 RMK A01 T00631087  RH  033%=      5-min Rain = 0
KCH1 121821Z 13006KT 06/M09 A3034 RMK A01 T00631087  RH  033%=      5-min Rain = 0
KCH1 121822Z 10010KT 07/M08 A3034 RMK A01 T00671083  RH  033%=      5-min Rain = 0
KCH1 121823Z 10009KT 07/M08 A3034 RMK A01 T00691084  RH  033%=      5-min Rain = 0
KCH1 121824Z 08010KT 07/M08 A3034 RMK A01 T00721083  RH  032%=      5-min Rain = 0
KCH1 121825Z 09010KT 07/M08 A3033 RMK A01 T00731084  RH  032%=      5-min Rain = 0
KCH1 121826Z 09006KT 07/M09 A3033 RMK A01 T00691088  RH  032%=      5-min Rain = 0
KCH1 121827Z 08006KT 07/M09 A3033 RMK A01 T00651089  RH  032%=      5-min Rain = 0
KCH1 121828Z 06006KT 06/M09 A3033 RMK A01 T00631087  RH  033%=      5-min Rain = 0
KCH1 121829Z 09005KT 07/M09 A3033 RMK A01 T00651085  RH  033%=      5-min Rain = 0
KCH1 121830Z 12010KT 07/M08 A3033 RMK A01 T00681083  RH  033%=      5-min Rain = 0
KCH1 121831Z 12008KT 07/M08 A3033 RMK A01 T00711084  RH  032%=      5-min Rain = 0
KCH1 121832Z 11009KT 07/M08 A3033 RMK A01 T00701084  RH  032%=      5-min Rain = 0
KCH1 121833Z 10006KT 07/M08 A3033 RMK A01 T00721082  RH  033%=      5-min Rain = 0
KCH1 121834Z 13005KT 07/M08 A3033 RMK A01 T00741083  RH  032%=      5-min Rain = 0
KCH1 121835Z 08003KT 08/M08 A3033 RMK A01 T00751081  RH  032%=      5-min Rain = 0
KCH1 121836Z 08006KT 08/M08 A3033 RMK A01 T00761082  RH  032%=      5-min Rain = 0
KCH1 121837Z 07004KT 08/M08 A3033 RMK A01 T00781081  RH  032%=      5-min Rain = 0
KCH1 121838Z 10004KT 08/M08 A3032 RMK A01 T00791083  RH  031%=      5-min Rain = 0
KCH1 121839Z 12006KT 08/M08 A3032 RMK A01 T00781082  RH  031%=      5-min Rain = 0
KCH1 121840Z 11009KT 08/M08 A3032 RMK A01 T00771082  RH  031%=      5-min Rain = 0
KCH1 121841Z 10005KT 08/M08 A3032 RMK A01 T00781082  RH  031%=      5-min Rain = 0
KCH1 121842Z 10005KT 08/M08 A3032 RMK A01 T00761083  RH  032%=      5-min Rain = 0
KCH1 121843Z 13007KT 08/M08 A3032 RMK A01 T00751082  RH  032%=      5-min Rain = 0
KCH1 121844Z 11007KT 08/M08 A3032 RMK A01 T00751081  RH  032%=      5-min Rain = 0
KCH1 121845Z 10007KT 08/M08 A3032 RMK A01 T00761082  RH  032%=      5-min Rain = 0
KCH1 121846Z 11007KT 08/M08 A3032 RMK A01 T00781079  RH  032%=      5-min Rain = 0
KCH1 121847Z 12008KT 08/M08 A3032 RMK A01 T00801080  RH  031%=      5-min Rain = 0
KCH1 121848Z 09009KT 08/M08 A3032 RMK A01 T00801079  RH  031%=      5-min Rain = 0
KCH1 121849Z 10010KT 09/M08 A3032 RMK A01 T00851077  RH  031%=      5-min Rain = 0
KCH1 121850Z 10008KT 08/M08 A3032 RMK A01 T00821081  RH  030%=      5-min Rain = 0
KCH1 121851Z 09006KT 08/M08 A3031 RMK A01 T00811080  RH  031%=      5-min Rain = 0
KCH1 121852Z 11009KT 08/M08 A3031 RMK A01 T00811080  RH  031%=      5-min Rain = 0
KCH1 121853Z 11011KT 08/M08 A3031 RMK A01 T00801081  RH  031%=      5-min Rain = 0
KCH1 121854Z 10010KT 07/M08 A3031 RMK A01 T00741084  RH  032%=      5-min Rain = 0
KCH1 121855Z 09009KT 07/M08 A3031 RMK A01 T00731082  RH  032%=      5-min Rain = 0
KCH1 121856Z 09008KT 07/M08 A3031 RMK A01 T00731082  RH  032%=      5-min Rain = 0
KCH1 121857Z 09006KT 07/M08 A3031 RMK A01 T00731081  RH  032%=      5-min Rain = 0
KCH1 121858Z 12006KT 08/M08 A3031 RMK A01 T00761078  RH  032%=      5-min Rain = 0
KCH1 121859Z 12008KT 08/M08 A303 RMK A01 T00821076  RH  032%=      5-min Rain = 0
KCH1 121900Z 14009KT 08/M08 A303 RMK A01 T00841078  RH  031%=      5-min Rain = 0
KCH1 121901Z 15009KT 08/M08 A303 RMK A01 T00821080  RH  031%=      5-min Rain = 0
KCH1 121902Z 15007KT 08/M08 A303 RMK A01 T00821079  RH  031%=      5-min Rain = 0
KCH1 121903Z 11006KT 08/M08 A303 RMK A01 T00811079  RH  031%=      5-min Rain = 0
KCH1 121904Z 09009KT 08/M08 A303 RMK A01 T00841076  RH  031%=      5-min Rain = 0
KCH1 121905Z 09005KT 09/M08 A303 RMK A01 T00861079  RH  030%=      5-min Rain = 0
KCH1 121906Z 09008KT 08/M08 A303 RMK A01 T00831080  RH  031%=      5-min Rain = 0
KCH1 121907Z 09008KT 08/M08 A303 RMK A01 T00841079  RH  031%=      5-min Rain = 0
KCH1 121908Z 11007KT 08/M08 A3029 RMK A01 T00831079  RH  031%=      5-min Rain = 0
KCH1 121909Z 13009KT 09/M08 A3029 RMK A01 T00871075  RH  031%=      5-min Rain = 0
KCH1 121910Z 13009KT 09/M08 A3029 RMK A01 T00871078  RH  030%=      5-min Rain = 0
KCH1 121911Z 12008KT 09/M08 A3029 RMK A01 T00861078  RH  030%=      5-min Rain = 0
KCH1 121912Z 13008KT 08/M08 A3029 RMK A01 T00841080  RH  030%=      5-min Rain = 0
KCH1 121913Z 15006KT 08/M08 A3029 RMK A01 T00821080  RH  031%=      5-min Rain = 0
KCH1 121914Z 11006KT 08/M08 A3029 RMK A01 T00841076  RH  031%=      5-min Rain = 0
KCH1 121915Z 07008KT 09/M08 A3029 RMK A01 T00901075  RH  030%=      5-min Rain = 0
KCH1 121916Z 09007KT 09/M08 A3029 RMK A01 T00861081  RH  030%=      5-min Rain = 0
KCH1 121917Z 12009G16KT 09/M08 A3029 RMK A01 T00851078  RH  031%=      5-min Rain = 0
KCH1 121918Z 12011KT 09/M08 A3029 RMK A01 T00871077  RH  030%=      5-min Rain = 0
KCH1 121919Z 11010KT 09/M08 A3029 RMK A01 T00891077  RH  030%=      5-min Rain = 0
KCH1 121920Z 13010KT 09/M08 A3029 RMK A01 T00881079  RH  030%=      5-min Rain = 0
KCH1 121921Z 14008KT 09/M08 A3029 RMK A01 T00851080  RH  030%=      5-min Rain = 0
KCH1 121922Z 13010KT 09/M08 A3029 RMK A01 T00851079  RH  030%=      5-min Rain = 0
KCH1 121923Z 13009KT 08/M08 A3029 RMK A01 T00841079  RH  031%=      5-min Rain = 0
KCH1 121924Z 14007KT 08/M08 A3029 RMK A01 T00841079  RH  031%=      5-min Rain = 0
KCH1 121925Z 12007KT 09/M08 A3029 RMK A01 T00861078  RH  030%=      5-min Rain = 0
KCH1 121926Z 11007KT 09/M08 A3028 RMK A01 T00871077  RH  030%=      5-min Rain = 0
KCH1 121927Z 11008KT 09/M08 A3028 RMK A01 T00891076  RH  030%=      5-min Rain = 0
KCH1 121928Z 13008KT 09/M08 A3028 RMK A01 T00911076  RH  030%=      5-min Rain = 0
KCH1 121929Z 11009KT 09/M08 A3028 RMK A01 T00941075  RH  030%=      5-min Rain = 0
KCH1 121930Z 11010KT 09/M08 A3028 RMK A01 T00941076  RH  029%=      5-min Rain = 0
KCH1 121931Z 11010KT 09/M08 A3028 RMK A01 T00921077  RH  030%=      5-min Rain = 0
KCH1 121932Z 12009KT 09/M08 A3028 RMK A01 T00901078  RH  030%=      5-min Rain = 0
KCH1 121933Z 13009KT 09/M08 A3028 RMK A01 T00901077  RH  030%=      5-min Rain = 0
KCH1 121934Z 13004KT 09/M08 A3028 RMK A01 T00871080  RH  030%=      5-min Rain = 0
KCH1 121935Z 11011KT 09/M08 A3028 RMK A01 T00861076  RH  031%=      5-min Rain = 0
KCH1 121936Z 12010KT 09/M08 A3028 RMK A01 T00891077  RH  030%=      5-min Rain = 0
KCH1 121937Z 14009KT 09/M08 A3028 RMK A01 T00901077  RH  030%=      5-min Rain = 0
KCH1 121938Z 14008KT 09/M08 A3027 RMK A01 T00901077  RH  030%=      5-min Rain = 0
KCH1 121939Z 14010KT 09/M08 A3027 RMK A01 T00891077  RH  030%=      5-min Rain = 0
KCH1 121940Z 15010KT 09/M08 A3027 RMK A01 T00901077  RH  030%=      5-min Rain = 0
KCH1 121941Z 15007KT 09/M08 A3027 RMK A01 T00911077  RH  030%=      5-min Rain = 0
KCH1 121942Z 13007KT 09/M08 A3027 RMK A01 T00941075  RH  030%=      5-min Rain = 0
KCH1 121943Z 12007KT 10/M08 A3027 RMK A01 T00961076  RH  029%=      5-min Rain = 0
KCH1 121944Z 09010KT 09/M08 A3027 RMK A01 T00941077  RH  029%=      5-min Rain = 0
KCH1 121945Z 09013KT 09/M08 A3027 RMK A01 T00931077  RH  029%=      5-min Rain = 0
KCH1 121946Z 09011KT 09/M08 A3027 RMK A01 T00931077  RH  029%=      5-min Rain = 0
KCH1 121947Z 11010KT 09/M08 A3027 RMK A01 T00911079  RH  029%=      5-min Rain = 0
KCH1 121948Z 12008KT 09/M08 A3027 RMK A01 T00871080  RH  030%=      5-min Rain = 0
KCH1 121949Z 10008KT 09/M08 A3027 RMK A01 T00861079  RH  030%=      5-min Rain = 0
KCH1 121950Z 10010KT 09/M08 A3027 RMK A01 T00881077  RH  030%=      5-min Rain = 0
KCH1 121951Z 10009KT 09/M08 A3027 RMK A01 T00911075  RH  030%=      5-min Rain = 0
KCH1 121952Z 09008KT 10/M08 A3027 RMK A01 T00951075  RH  029%=      5-min Rain = 0
KCH1 121953Z 09009KT 10/M08 A3027 RMK A01 T00951076  RH  029%=      5-min Rain = 0
KCH1 121954Z 11009KT 10/M08 A3027 RMK A01 T00951075  RH  029%=      5-min Rain = 0
KCH1 121955Z 13007KT 10/M08 A3027 RMK A01 T00951076  RH  029%=      5-min Rain = 0
KCH1 121956Z 12009KT 09/M08 A3027 RMK A01 T00931076  RH  029%=      5-min Rain = 0
KCH1 121957Z 13010KT 09/M08 A3026 RMK A01 T00931076  RH  030%=      5-min Rain = 0
KCH1 121958Z 12009KT 09/M08 A3026 RMK A01 T00941075  RH  029%=      5-min Rain = 0
KCH1 121959Z 12007KT 10/M08 A3026 RMK A01 T00961075  RH  029%=      5-min Rain = 0
KCH1 122000Z 13009KT 09/M08 A3026 RMK A01 T00941077  RH  029%=      5-min Rain = 0
KCH1 122001Z 15007KT 09/M08 A3026 RMK A01 T00921077  RH  030%=      5-min Rain = 0
KCH1 122002Z 14006KT 09/M08 A3026 RMK A01 T00931075  RH  030%=      5-min Rain = 0
KCH1 122003Z 09008KT 10/M08 A3026 RMK A01 T00951075  RH  029%=      5-min Rain = 0
KCH1 122004Z 10009KT 10/M07 A3026 RMK A01 T00981073  RH  029%=      5-min Rain = 0
KCH1 122005Z 11008KT 10/M08 A3026 RMK A01 T00991075  RH  029%=      5-min Rain = 0
KCH1 122006Z 12010KT 10/M08 A3026 RMK A01 T00981075  RH  029%=      5-min Rain = 0
KCH1 122007Z 10009KT 10/M07 A3026 RMK A01 T00981074  RH  029%=      5-min Rain = 0
KCH1 122008Z 09012KT 10/M07 A3026 RMK A01 T01001074  RH  029%=      5-min Rain = 0
KCH1 122009Z 08011KT 10/M08 A3026 RMK A01 T01001075  RH  028%=      5-min Rain = 0
KCH1 122010Z 08010KT 10/M08 A3026 RMK A01 T01001075  RH  028%=      5-min Rain = 0
KCH1 122011Z 08009KT 10/M07 A3026 RMK A01 T01011074  RH  028%=      5-min Rain = 0
KCH1 122012Z 08007KT 10/M08 A3025 RMK A01 T00971077  RH  028%=      5-min Rain = 0
KCH1 122013Z 09006KT 09/M08 A3025 RMK A01 T00931078  RH  029%=      5-min Rain = 0
KCH1 122014Z 12005KT 09/M08 A3025 RMK A01 T00901078  RH  030%=      5-min Rain = 0
KCH1 122015Z 12005KT 09/M08 A3025 RMK A01 T00901075  RH  030%=      5-min Rain = 0
KCH1 122016Z 11008KT 09/M07 A3025 RMK A01 T00931074  RH  030%=      5-min Rain = 0
KCH1 122017Z 10007KT 10/M07 A3025 RMK A01 T00951074  RH  030%=      5-min Rain = 0
KCH1 122018Z 11006KT 10/M07 A3025 RMK A01 T00991071  RH  029%=      5-min Rain = 0
KCH1 122019Z 10007KT 10/M07 A3025 RMK A01 T01021074  RH  028%=      5-min Rain = 0
KCH1 122020Z 10006KT 10/M08 A3025 RMK A01 T01001075  RH  028%=      5-min Rain = 0
KCH1 122021Z 12009KT 10/M07 A3025 RMK A01 T00991074  RH  029%=      5-min Rain = 0
KCH1 122022Z 12011KT 10/M07 A3025 RMK A01 T00991074  RH  029%=      5-min Rain = 0
KCH1 122023Z 11010KT 10/M08 A3025 RMK A01 T00991075  RH  029%=      5-min Rain = 0
KCH1 122024Z 12011KT 10/M07 A3025 RMK A01 T00991074  RH  029%=      5-min Rain = 0
KCH1 122025Z 12012KT 10/M08 A3025 RMK A01 T00981075  RH  029%=      5-min Rain = 0
KCH1 122026Z 11010KT 10/M08 A3025 RMK A01 T00961075  RH  029%=      5-min Rain = 0
KCH1 122027Z 11005KT 10/M07 A3025 RMK A01 T00961074  RH  029%=      5-min Rain = 0
KCH1 122028Z 09006KT 10/M07 A3025 RMK A01 T00971073  RH  029%=      5-min Rain = 0
KCH1 122029Z 10011G16KT 10/M07 A3025 RMK A01 T00981074  RH  029%=      5-min Rain = 0
KCH1 122030Z 11008KT 10/M07 A3025 RMK A01 T01021071  RH  029%=      5-min Rain = 0
KCH1 122031Z 11008KT 11/M07 A3024 RMK A01 T01051072  RH  028%=      5-min Rain = 0
KCH1 122032Z 13008KT 10/M07 A3024 RMK A01 T01031073  RH  028%=      5-min Rain = 0
KCH1 122033Z 12008KT 10/M07 A3024 RMK A01 T01021073  RH  028%=      5-min Rain = 0
KCH1 122034Z 10006KT 10/M07 A3024 RMK A01 T01031071  RH  029%=      5-min Rain = 0
KCH1 122035Z 11012KT 11/M07 A3024 RMK A01 T01051071  RH  028%=      5-min Rain = 0
KCH1 122036Z 13009KT 11/M07 A3024 RMK A01 T01051072  RH  028%=      5-min Rain = 0
KCH1 122037Z 11013KT 10/M07 A3024 RMK A01 T01041072  RH  028%=      5-min Rain = 0
KCH1 122038Z 10008KT 10/M07 A3024 RMK A01 T01021073  RH  028%=      5-min Rain = 0
KCH1 122039Z 10009KT 10/M07 A3024 RMK A01 T01011073  RH  029%=      5-min Rain = 0
KCH1 122040Z 11010KT 10/M07 A3024 RMK A01 T01011073  RH  029%=      5-min Rain = 0
KCH1 122041Z 12008KT 10/M07 A3024 RMK A01 T01021073  RH  029%=      5-min Rain = 0
KCH1 122042Z 08009KT 10/M07 A3024 RMK A01 T01041071  RH  029%=      5-min Rain = 0
KCH1 122043Z 07008KT 10/M07 A3024 RMK A01 T01041073  RH  028%=      5-min Rain = 0
KCH1 122044Z 07009KT 10/M07 A3024 RMK A01 T01031073  RH  028%=      5-min Rain = 0
KCH1 122045Z 09007KT 10/M07 A3024 RMK A01 T01011074  RH  028%=      5-min Rain = 0
KCH1 122046Z 12010KT 10/M07 A3024 RMK A01 T01021071  RH  029%=      5-min Rain = 0
KCH1 122047Z 13009KT 11/M07 A3024 RMK A01 T01051070  RH  028%=      5-min Rain = 0
KCH1 122048Z 12013KT 11/M07 A3024 RMK A01 T01051071  RH  028%=      5-min Rain = 0
KCH1 122049Z 12011KT 10/M07 A3024 RMK A01 T01041072  RH  028%=      5-min Rain = 0
KCH1 122050Z 15010KT 10/M07 A3024 RMK A01 T01021073  RH  029%=      5-min Rain = 0
KCH1 122051Z 15007KT 10/M07 A3024 RMK A01 T01021072  RH  029%=      5-min Rain = 0
KCH1 122052Z 13006KT 10/M07 A3024 RMK A01 T01031071  RH  029%=      5-min Rain = 0
KCH1 122053Z 12007KT 10/M07 A3024 RMK A01 T01041071  RH  029%=      5-min Rain = 0
KCH1 122054Z 10010KT 11/M07 A3024 RMK A01 T01081069  RH  028%=      5-min Rain = 0
KCH1 122055Z 11010KT 11/M07 A3023 RMK A01 T01091071  RH  028%=      5-min Rain = 0
KCH1 122056Z 11010KT 11/M07 A3023 RMK A01 T01061072  RH  028%=      5-min Rain = 0
KCH1 122057Z 09012KT 11/M07 A3023 RMK A01 T01071070  RH  028%=      5-min Rain = 0
KCH1 122058Z 09009KT 11/M07 A3023 RMK A01 T01071071  RH  028%=      5-min Rain = 0
KCH1 122059Z 11009KT 11/M07 A3023 RMK A01 T01081071  RH  028%=      5-min Rain = 0
KCH1 122100Z 11012KT 11/M07 A3023 RMK A01 T01081070  RH  028%=      5-min Rain = 0
KCH1 122101Z 11011KT 11/M07 A3023 RMK A01 T01091070  RH  028%=      5-min Rain = 0
KCH1 122102Z 11011KT 11/M07 A3023 RMK A01 T01101070  RH  028%=      5-min Rain = 0
KCH1 122103Z 12008KT 11/M07 A3023 RMK A01 T01101070  RH  028%=      5-min Rain = 0
KCH1 122104Z 11006KT 11/M07 A3023 RMK A01 T01091071  RH  028%=      5-min Rain = 0
KCH1 122105Z 11009KT 11/M07 A3023 RMK A01 T01081069  RH  028%=      5-min Rain = 0
KCH1 122106Z 08009KT 11/M07 A3023 RMK A01 T01091070  RH  028%=      5-min Rain = 0
KCH1 122107Z 10014KT 11/M07 A3023 RMK A01 T01131067  RH  028%=      5-min Rain = 0
KCH1 122108Z 10013KT 11/M07 A3023 RMK A01 T01131070  RH  027%=      5-min Rain = 0
KCH1 122109Z 09010KT 11/M07 A3023 RMK A01 T01101070  RH  027%=      5-min Rain = 0
KCH1 122110Z 11008KT 11/M07 A3023 RMK A01 T01101069  RH  028%=      5-min Rain = 0
KCH1 122111Z 12010KT 11/M07 A3023 RMK A01 T01111069  RH  028%=      5-min Rain = 0
KCH1 122112Z 11010KT 11/M07 A3023 RMK A01 T01101070  RH  028%=      5-min Rain = 0
KCH1 122113Z 11012KT 11/M07 A3023 RMK A01 T01111069  RH  028%=      5-min Rain = 0
KCH1 122114Z 13010KT 11/M07 A3023 RMK A01 T01111069  RH  028%=      5-min Rain = 0
KCH1 122115Z 14008KT 11/M07 A3023 RMK A01 T01101069  RH  028%=      5-min Rain = 0
KCH1 122116Z 15008KT 11/M07 A3023 RMK A01 T01101068  RH  028%=      5-min Rain = 0
KCH1 122117Z 13006KT 11/M07 A3023 RMK A01 T01131067  RH  028%=      5-min Rain = 0
KCH1 122118Z 13006KT 11/M07 A3023 RMK A01 T01131069  RH  027%=      5-min Rain = 0
KCH1 122119Z 14007KT 11/M07 A3023 RMK A01 T01131068  RH  028%=      5-min Rain = 0
KCH1 122120Z 11012KT 11/M07 A3023 RMK A01 T01141066  RH  028%=      5-min Rain = 0
KCH1 122121Z 12009KT 12/M07 A3023 RMK A01 T01151067  RH  027%=      5-min Rain = 0
KCH1 122122Z 11006KT 11/M07 A3023 RMK A01 T01131068  RH  027%=      5-min Rain = 0
KCH1 122123Z 11008G13KT 11/M07 A3023 RMK A01 T01131066  RH  028%=      5-min Rain = 0
KCH1 122124Z 10011KT 12/M07 A3023 RMK A01 T01161065  RH  027%=      5-min Rain = 0
KCH1 122125Z 10008KT 12/M07 A3023 RMK A01 T01161067  RH  027%=      5-min Rain = 0
KCH1 122126Z 10013G19KT 12/M07 A3023 RMK A01 T01161066  RH  027%=      5-min Rain = 0
KCH1 122127Z 10013KT 12/M07 A3023 RMK A01 T01181065  RH  027%=      5-min Rain = 0
KCH1 122128Z 10011KT 12/M07 A3023 RMK A01 T01191066  RH  027%=      5-min Rain = 0
KCH1 122129Z 11011KT 12/M07 A3023 RMK A01 T01181067  RH  027%=      5-min Rain = 0
KCH1 122130Z 14010KT 12/M07 A3023 RMK A01 T01161067  RH  027%=      5-min Rain = 0
KCH1 122131Z 14009G14KT 12/M07 A3023 RMK A01 T01161066  RH  027%=      5-min Rain = 0
KCH1 122132Z 13008KT 12/M07 A3023 RMK A01 T01151067  RH  027%=      5-min Rain = 0
KCH1 122133Z 14007KT 12/M07 A3023 RMK A01 T01151065  RH  028%=      5-min Rain = 0
KCH1 122134Z 13008KT 12/M06 A3023 RMK A01 T01201063  RH  027%=      5-min Rain = 0
KCH1 122135Z 12011KT 12/M07 A3023 RMK A01 T01211065  RH  027%=      5-min Rain = 0
KCH1 122136Z 11010KT 12/M07 A3023 RMK A01 T01181067  RH  027%=      5-min Rain = 0
KCH1 122137Z 11009KT 12/M07 A3023 RMK A01 T01151067  RH  027%=      5-min Rain = 0
KCH1 122138Z 10009KT 11/M07 A3023 RMK A01 T01141066  RH  028%=      5-min Rain = 0
KCH1 122139Z 09008KT 12/M07 A3023 RMK A01 T01151066  RH  028%=      5-min Rain = 0
KCH1 122140Z 10008KT 11/M07 A3023 RMK A01 T01141067  RH  027%=      5-min Rain = 0
KCH1 122141Z 10008KT 11/M07 A3023 RMK A01 T01141067  RH  028%=      5-min Rain = 0
KCH1 122142Z 13010KT 12/M07 A3023 RMK A01 T01151066  RH  028%=      5-min Rain = 0
KCH1 122143Z 12011KT 12/M06 A3023 RMK A01 T01181064  RH  028%=      5-min Rain = 0
KCH1 122144Z 13009KT 12/M07 A3023 RMK A01 T01181066  RH  027%=      5-min Rain = 0
KCH1 122145Z 15010KT 12/M07 A3023 RMK A01 T01171065  RH  027%=      5-min Rain = 0
KCH1 122146Z 14011KT 12/M07 A3023 RMK A01 T01161066  RH  027%=      5-min Rain = 0
KCH1 122147Z 14011KT 12/M07 A3023 RMK A01 T01151066  RH  028%=      5-min Rain = 0
KCH1 122148Z 13014G19KT 12/M07 A3023 RMK A01 T01161065  RH  028%=      5-min Rain = 0
KCH1 122149Z 11015KT 12/M07 A3023 RMK A01 T01161066  RH  027%=      5-min Rain = 0
KCH1 122150Z 11013KT 12/M07 A3023 RMK A01 T01151066  RH  027%=      5-min Rain = 0
KCH1 122151Z 11013KT 11/M07 A3023 RMK A01 T01141066  RH  028%=      5-min Rain = 0
KCH1 122152Z 11011KT 11/M07 A3023 RMK A01 T01141066  RH  028%=      5-min Rain = 0
KCH1 122153Z 11009KT 11/M07 A3023 RMK A01 T01141066  RH  028%=      5-min Rain = 0
KCH1 122154Z 10010KT 11/M07 A3023 RMK A01 T01131066  RH  028%=      5-min Rain = 0
KCH1 122155Z 12011KT 11/M07 A3023 RMK A01 T01141065  RH  028%=      5-min Rain = 0
KCH1 122156Z 12009KT 11/M07 A3023 RMK A01 T01141066  RH  028%=      5-min Rain = 0
KCH1 122157Z 12008KT 11/M07 A3023 RMK A01 T01141065  RH  028%=      5-min Rain = 0
KCH1 122158Z 12007KT 11/M07 A3023 RMK A01 T01141066  RH  028%=      5-min Rain = 0
KCH1 122159Z 12011KT 12/M06 A3023 RMK A01 T01151064  RH  028%=      5-min Rain = 0
KCH1 122200Z 12012KT 12/M06 A3023 RMK A01 T01171064  RH  027%=      5-min Rain = 0
KCH1 122201Z 12010KT 12/M07 A3023 RMK A01 T01171065  RH  027%=      5-min Rain = 0
KCH1 122202Z 14008KT 12/M07 A3023 RMK A01 T01171065  RH  027%=      5-min Rain = 0
KCH1 122203Z 14009KT 12/M06 A3023 RMK A01 T01181064  RH  027%=      5-min Rain = 0
KCH1 122204Z 14005KT 12/M06 A3023 RMK A01 T01191064  RH  027%=      5-min Rain = 0
KCH1 122205Z 16007KT 12/M06 A3023 RMK A01 T01191064  RH  027%=      5-min Rain = 0
KCH1 122206Z 13007KT 12/M06 A3022 RMK A01 T01201064  RH  027%=      5-min Rain = 0
KCH1 122207Z 11007KT 12/M06 A3022 RMK A01 T01231062  RH  027%=      5-min Rain = 0
KCH1 122208Z 12006KT 12/M06 A3022 RMK A01 T01231064  RH  026%=      5-min Rain = 0
KCH1 122209Z 13009KT 12/M06 A3022 RMK A01 T01221064  RH  027%=      5-min Rain = 0
KCH1 122210Z 12010KT 12/M06 A3022 RMK A01 T01211064  RH  027%=      5-min Rain = 0
KCH1 122211Z 12008KT 12/M07 A3022 RMK A01 T01211066  RH  027%=      5-min Rain = 0
KCH1 122212Z 12008KT 12/M07 A3022 RMK A01 T01191066  RH  027%=      5-min Rain = 0
KCH1 122213Z 11010KT 12/M06 A3022 RMK A01 T01201064  RH  027%=      5-min Rain = 0
KCH1 122214Z 12011KT 12/M06 A3022 RMK A01 T01221064  RH  027%=      5-min Rain = 0
KCH1 122215Z 14009KT 12/M07 A3022 RMK A01 T01201066  RH  027%=      5-min Rain = 0
KCH1 122216Z 15009KT 12/M07 A3022 RMK A01 T01181065  RH  027%=      5-min Rain = 0
KCH1 122217Z 16008KT 12/M07 A3022 RMK A01 T01191065  RH  027%=      5-min Rain = 0
KCH1 122218Z 15009KT 12/M07 A3022 RMK A01 T01191065  RH  027%=      5-min Rain = 0
KCH1 122219Z 15014G19KT 12/M07 A3022 RMK A01 T01191065  RH  027%=      5-min Rain = 0
KCH1 122220Z 13013KT 12/M07 A3022 RMK A01 T01201065  RH  027%=      5-min Rain = 0
KCH1 122221Z 13012KT 12/M07 A3022 RMK A01 T01201065  RH  027%=      5-min Rain = 0
KCH1 122222Z 12011KT 12/M07 A3022 RMK A01 T01201065  RH  027%=      5-min Rain = 0
KCH1 122223Z 12010KT 12/M07 A3022 RMK A01 T01191065  RH  027%=      5-min Rain = 0
KCH1 122224Z 13009KT 12/M07 A3022 RMK A01 T01181066  RH  027%=      5-min Rain = 0
KCH1 122225Z 14008KT 12/M07 A3022 RMK A01 T01171065  RH  027%=      5-min Rain = 0
KCH1 122226Z 13008G15KT 12/M07 A3022 RMK A01 T01171065  RH  027%=      5-min Rain = 0
KCH1 122227Z 12011KT 12/M07 A3022 RMK A01 T01171065  RH  027%=      5-min Rain = 0
KCH1 122228Z 11009KT 12/M07 A3022 RMK A01 T01171065  RH  027%=      5-min Rain = 0
KCH1 122229Z 11010KT 12/M07 A3022 RMK A01 T01181065  RH  027%=      5-min Rain = 0
KCH1 122230Z 11007KT 12/M07 A3022 RMK A01 T01181065  RH  027%=      5-min Rain = 0
KCH1 122231Z 13007KT 12/M07 A3022 RMK A01 T01191065  RH  027%=      5-min Rain = 0
KCH1 122232Z 13009KT 12/M07 A3022 RMK A01 T01191065  RH  027%=      5-min Rain = 0
KCH1 122233Z 13011KT 12/M07 A3022 RMK A01 T01201065  RH  027%=      5-min Rain = 0
KCH1 122234Z 12011KT 12/M06 A3022 RMK A01 T01201064  RH  027%=      5-min Rain = 0
KCH1 122235Z 11010KT 12/M06 A3022 RMK A01 T01201064  RH  027%=      5-min Rain = 0
KCH1 122236Z 13010KT 12/M06 A3022 RMK A01 T01211064  RH  027%=      5-min Rain = 0
KCH1 122237Z 13010KT 12/M06 A3022 RMK A01 T01221064  RH  027%=      5-min Rain = 0
KCH1 122238Z 12008KT 12/M06 A3022 RMK A01 T01221064  RH  027%=      5-min Rain = 0
KCH1 122239Z 10009KT 12/M06 A3022 RMK A01 T01221064  RH  027%=      5-min Rain = 0
KCH1 122240Z 09011KT 12/M06 A3022 RMK A01 T01231064  RH  027%=      5-min Rain = 0
KCH1 122241Z 09010KT 12/M06 A3022 RMK A01 T01221064  RH  027%=      5-min Rain = 0
KCH1 122242Z 10008KT 12/M07 A3022 RMK A01 T01211065  RH  027%=      5-min Rain = 0
KCH1 122243Z 09007KT 12/M06 A3022 RMK A01 T01201064  RH  027%=      5-min Rain = 0
KCH1 122244Z 11007KT 12/M06 A3022 RMK A01 T01221063  RH  027%=      5-min Rain = 0
KCH1 122245Z 13008KT 12/M06 A3022 RMK A01 T01231063  RH  027%=      5-min Rain = 0
KCH1 122246Z 13007KT 13/M06 A3022 RMK A01 T01251063  RH  026%=      5-min Rain = 0
KCH1 122247Z 10010KT 12/M06 A3022 RMK A01 T01241063  RH  026%=      5-min Rain = 0
KCH1 122248Z 10011KT 12/M06 A3022 RMK A01 T01231064  RH  026%=      5-min Rain = 0
KCH1 122249Z 12008KT 12/M06 A3022 RMK A01 T01211064  RH  027%=      5-min Rain = 0
KCH1 122250Z 13009KT 12/M06 A3022 RMK A01 T01211063  RH  027%=      5-min Rain = 0
KCH1 122251Z 11010KT 12/M06 A3022 RMK A01 T01221063  RH  027%=      5-min Rain = 0
KCH1 122252Z 10008KT 12/M06 A3022 RMK A01 T01231063  RH  027%=      5-min Rain = 0
KCH1 122253Z 10009KT 12/M06 A3022 RMK A01 T01231063  RH  027%=      5-min Rain = 0
KCH1 122254Z 11009KT 12/M06 A3022 RMK A01 T01231063  RH  027%=      5-min Rain = 0
KCH1 122255Z 11010KT 12/M06 A3022 RMK A01 T01231064  RH  027%=      5-min Rain = 0
KCH1 122256Z 10011KT 12/M06 A3022 RMK A01 T01231063  RH  027%=      5-min Rain = 0
KCH1 122257Z 10013KT 12/M06 A3022 RMK A01 T01231063  RH  027%=      5-min Rain = 0
KCH1 122258Z 11011KT 12/M06 A3022 RMK A01 T01221064  RH  027%=      5-min Rain = 0
KCH1 122259Z 11010KT 12/M07 A3022 RMK A01 T01201065  RH  027%=      5-min Rain = 0
KCH1 122300Z 12010KT 12/M06 A3022 RMK A01 T01191063  RH  027%=      5-min Rain = 0
KCH1 122301Z 10012KT 12/M06 A3022 RMK A01 T01201063  RH  027%=      5-min Rain = 0
KCH1 122302Z 11013KT 12/M06 A3022 RMK A01 T01191064  RH  027%=      5-min Rain = 0
KCH1 122303Z 11010KT 12/M07 A3022 RMK A01 T01181065  RH  027%=      5-min Rain = 0
KCH1 122304Z 11010KT 12/M07 A3022 RMK A01 T01161065  RH  028%=      5-min Rain = 0
KCH1 122305Z 11010KT 12/M06 A3022 RMK A01 T01161064  RH  028%=      5-min Rain = 0
KCH1 122306Z 11014KT 12/M06 A3022 RMK A01 T01171063  RH  028%=      5-min Rain = 0
KCH1 122307Z 10014KT 12/M06 A3022 RMK A01 T01171063  RH  028%=      5-min Rain = 0
KCH1 122308Z 13012KT 12/M06 A3022 RMK A01 T01171063  RH  028%=      5-min Rain = 0
KCH1 122309Z 12011KT 12/M06 A3022 RMK A01 T01181062  RH  028%=      5-min Rain = 0
KCH1 122310Z 12009KT 12/M06 A3022 RMK A01 T01181062  RH  028%=      5-min Rain = 0
KCH1 122311Z 12008KT 12/M06 A3022 RMK A01 T01181062  RH  028%=      5-min Rain = 0
KCH1 122312Z 12008KT 12/M06 A3022 RMK A01 T01191062  RH  028%=      5-min Rain = 0
KCH1 122313Z 11009KT 12/M06 A3022 RMK A01 T01191062  RH  028%=      5-min Rain = 0
KCH1 122314Z 13010KT 12/M06 A3022 RMK A01 T01191062  RH  028%=      5-min Rain = 0
KCH1 122315Z 11010G15KT 12/M06 A3022 RMK A01 T01191062  RH  028%=      5-min Rain = 0
KCH1 122316Z 11012KT 12/M06 A3022 RMK A01 T01201062  RH  028%=      5-min Rain = 0
KCH1 122317Z 14010KT 12/M06 A3022 RMK A01 T01191062  RH  028%=      5-min Rain = 0
KCH1 122318Z 14011KT 12/M06 A3022 RMK A01 T01181062  RH  028%=      5-min Rain = 0
KCH1 122319Z 14010KT 12/M06 A3022 RMK A01 T01171062  RH  028%=      5-min Rain = 0
KCH1 122320Z 13009KT 12/M06 A3022 RMK A01 T01171062  RH  028%=      5-min Rain = 0
KCH1 122321Z 13011KT 12/M06 A3022 RMK A01 T01181062  RH  028%=      5-min Rain = 0
KCH1 122322Z 13009KT 12/M06 A3022 RMK A01 T01181062  RH  028%=      5-min Rain = 0
KCH1 122323Z 13007KT 12/M06 A3022 RMK A01 T01171062  RH  028%=      5-min Rain = 0
KCH1 122324Z 12007KT 12/M06 A3022 RMK A01 T01171062  RH  028%=      5-min Rain = 0
KCH1 122325Z 12007KT 12/M06 A3022 RMK A01 T01181062  RH  028%=      5-min Rain = 0
KCH1 122326Z 13010KT 12/M06 A3022 RMK A01 T01181062  RH  028%=      5-min Rain = 0
KCH1 122327Z 13012KT 12/M06 A3022 RMK A01 T01181062  RH  028%=      5-min Rain = 0
KCH1 122328Z 13010KT 12/M06 A3022 RMK A01 T01181062  RH  028%=      5-min Rain = 0
KCH1 122329Z 13013KT 12/M06 A3022 RMK A01 T01181062  RH  028%=      5-min Rain = 0
KCH1 122330Z 13011KT 12/M06 A3022 RMK A01 T01171063  RH  028%=      5-min Rain = 0
KCH1 122331Z 12009KT 12/M06 A3022 RMK A01 T01151063  RH  028%=      5-min Rain = 0
KCH1 122332Z 12008KT 12/M06 A3022 RMK A01 T01151062  RH  028%=      5-min Rain = 0
KCH1 122333Z 11007KT 12/M06 A3022 RMK A01 T01151062  RH  028%=      5-min Rain = 0
KCH1 122334Z 12007KT 12/M06 A3022 RMK A01 T01151062  RH  028%=      5-min Rain = 0
KCH1 122335Z 11008KT 12/M06 A3022 RMK A01 T01151062  RH  028%=      5-min Rain = 0
KCH1 122336Z 13009KT 12/M06 A3023 RMK A01 T01151062  RH  028%=      5-min Rain = 0
KCH1 122337Z 14012KT 12/M06 A3023 RMK A01 T01161062  RH  028%=      5-min Rain = 0
KCH1 122338Z 14011KT 12/M06 A3023 RMK A01 T01151062  RH  028%=      5-min Rain = 0
KCH1 122339Z 14010KT 12/M06 A3023 RMK A01 T01151062  RH  028%=      5-min Rain = 0
KCH1 122340Z 14010KT 11/M06 A3023 RMK A01 T01141063  RH  028%=      5-min Rain = 0
KCH1 122341Z 13009KT 11/M06 A3023 RMK A01 T01141062  RH  028%=      5-min Rain = 0
KCH1 122342Z 13008KT 11/M06 A3023 RMK A01 T01141062  RH  029%=      5-min Rain = 0
KCH1 122343Z 14009KT 11/M06 A3023 RMK A01 T01141062  RH  029%=      5-min Rain = 0
KCH1 122344Z 15009KT 11/M06 A3023 RMK A01 T01141062  RH  029%=      5-min Rain = 0
KCH1 122345Z 15008KT 11/M06 A3023 RMK A01 T01141062  RH  029%=      5-min Rain = 0
KCH1 122346Z 14009KT 11/M06 A3023 RMK A01 T01131063  RH  029%=      5-min Rain = 0
KCH1 122347Z 14007KT 11/M06 A3023 RMK A01 T01131062  RH  029%=      5-min Rain = 0
KCH1 122348Z 14007KT 11/M06 A3023 RMK A01 T01121062  RH  029%=      5-min Rain = 0
KCH1 122349Z 13009KT 11/M06 A3023 RMK A01 T01131062  RH  029%=      5-min Rain = 0
KCH1 122350Z 14008KT 11/M06 A3023 RMK A01 T01121062  RH  029%=      5-min Rain = 0
KCH1 122351Z 14010KT 11/M06 A3023 RMK A01 T01121063  RH  029%=      5-min Rain = 0
KCH1 122352Z 14008KT 11/M06 A3023 RMK A01 T01111063  RH  029%=      5-min Rain = 0
KCH1 122353Z 14011KT 11/M06 A3023 RMK A01 T01111063  RH  029%=      5-min Rain = 0
KCH1 122354Z 14011KT 11/M06 A3023 RMK A01 T01111063  RH  029%=      5-min Rain = 0
KCH1 122355Z 14010KT 11/M06 A3023 RMK A01 T01101063  RH  029%=      5-min Rain = 0
KCH1 122356Z 14010KT 11/M06 A3023 RMK A01 T01101063  RH  029%=      5-min Rain = 0
KCH1 122357Z 14010KT 11/M06 A3022 RMK A01 T01091063  RH  029%=      5-min Rain = 0
KCH1 122358Z 13008KT 11/M06 A3022 RMK A01 T01091063  RH  029%=      5-min Rain = 0
KCH1 122359Z 13009KT 11/M06 A3022 RMK A01 T01091063  RH  029%=      5-min Rain = 0
KCH1 130000Z 13010KT 11/M06 A3022 RMK A01 T01081063  RH  029%=      5-min Rain = 0
KCH1 130001Z 13007KT 11/M06 A3022 RMK A01 T01081063  RH  029%=      5-min Rain = 0
KCH1 130002Z 14007KT 11/M06 A3022 RMK A01 T01081063  RH  030%=      5-min Rain = 0
KCH1 130003Z 15009KT 11/M06 A3023 RMK A01 T01071064  RH  030%=      5-min Rain = 0
KCH1 130004Z 13009KT 11/M06 A3023 RMK A01 T01071063  RH  030%=      5-min Rain = 0
KCH1 130005Z 13010KT 11/M06 A3023 RMK A01 T01061064  RH  030%=      5-min Rain = 0
KCH1 130006Z 14009KT 11/M06 A3023 RMK A01 T01061063  RH  030%=      5-min Rain = 0
KCH1 130007Z 13007KT 11/M06 A3023 RMK A01 T01061063  RH  030%=      5-min Rain = 0
KCH1 130008Z 13007KT 11/M06 A3023 RMK A01 T01061064  RH  030%=      5-min Rain = 0
KCH1 130009Z 13007KT 11/M06 A3023 RMK A01 T01051063  RH  030%=      5-min Rain = 0
KCH1 130010Z 13006KT 10/M06 A3023 RMK A01 T01041064  RH  030%=      5-min Rain = 0
KCH1 130011Z 13009KT 10/M06 A3023 RMK A01 T01031064  RH  030%=      5-min Rain = 0
KCH1 130012Z 13006KT 10/M06 A3023 RMK A01 T01031064  RH  030%=      5-min Rain = 0
KCH1 130013Z 13007KT 10/M06 A3023 RMK A01 T01031064  RH  030%=      5-min Rain = 0
KCH1 130014Z 13006KT 10/M06 A3023 RMK A01 T01021064  RH  030%=      5-min Rain = 0
KCH1 130015Z 12007KT 10/M06 A3023 RMK A01 T01021064  RH  030%=      5-min Rain = 0
KCH1 130016Z 13006KT 10/M06 A3023 RMK A01 T01021064  RH  031%=      5-min Rain = 0
KCH1 130017Z 13007KT 10/M06 A3023 RMK A01 T01011064  RH  031%=      5-min Rain = 0
KCH1 130018Z 12008KT 10/M06 A3023 RMK A01 T01011064  RH  031%=      5-min Rain = 0
KCH1 130019Z 12006KT 10/M06 A3023 RMK A01 T01011064  RH  031%=      5-min Rain = 0
KCH1 130020Z 12007KT 10/M06 A3023 RMK A01 T01001064  RH  031%=      5-min Rain = 0
KCH1 130021Z 12008KT 10/M06 A3023 RMK A01 T00991064  RH  031%=      5-min Rain = 0
KCH1 130022Z 12008KT 10/M06 A3023 RMK A01 T00991064  RH  031%=      5-min Rain = 0
KCH1 130023Z 12007KT 10/M06 A3023 RMK A01 T00991064  RH  031%=      5-min Rain = 0
KCH1 130024Z 12007KT 10/M06 A3023 RMK A01 T00991064  RH  031%=      5-min Rain = 0
KCH1 130025Z 12007KT 10/M06 A3023 RMK A01 T00981064  RH  031%=      5-min Rain = 0
KCH1 130026Z 12007KT 10/M06 A3023 RMK A01 T00981064  RH  031%=      5-min Rain = 0
KCH1 130027Z 12006KT 10/M07 A3023 RMK A01 T00971065  RH  031%=      5-min Rain = 0
KCH1 130028Z 13007KT 10/M07 A3023 RMK A01 T00961065  RH  032%=      5-min Rain = 0
KCH1 130029Z 12007KT 10/M07 A3023 RMK A01 T00951065  RH  032%=      5-min Rain = 0
KCH1 130030Z 13008KT 10/M07 A3023 RMK A01 T00951065  RH  032%=      5-min Rain = 0
KCH1 130031Z 12007KT 10/M06 A3023 RMK A01 T00951064  RH  032%=      5-min Rain = 0
KCH1 130032Z 12007KT 10/M06 A3023 RMK A01 T00951064  RH  032%=      5-min Rain = 0
KCH1 130033Z 13007KT 10/M07 A3023 RMK A01 T00951065  RH  032%=      5-min Rain = 0
KCH1 130034Z 12007KT 10/M06 A3023 RMK A01 T00951064  RH  032%=      5-min Rain = 0
KCH1 130035Z 13007KT 09/M06 A3023 RMK A01 T00941064  RH  032%=      5-min Rain = 0
KCH1 130036Z 12006KT 09/M06 A3023 RMK A01 T00941064  RH  032%=      5-min Rain = 0
KCH1 130037Z 13009KT 09/M07 A3023 RMK A01 T00931065  RH  032%=      5-min Rain = 0
KCH1 130038Z 12008KT 09/M07 A3023 RMK A01 T00931065  RH  032%=      5-min Rain = 0
KCH1 130039Z 13007KT 09/M07 A3023 RMK A01 T00931065  RH  032%=      5-min Rain = 0
KCH1 130040Z 12006KT 09/M06 A3023 RMK A01 T00931064  RH  032%=      5-min Rain = 0
KCH1 130041Z 12006KT 09/M07 A3023 RMK A01 T00921065  RH  032%=      5-min Rain = 0
KCH1 130042Z 12005KT 09/M07 A3023 RMK A01 T00921065  RH  032%=      5-min Rain = 0
KCH1 130043Z 12006KT 09/M07 A3023 RMK A01 T00901066  RH  033%=      5-min Rain = 0
KCH1 130044Z 12007KT 09/M07 A3023 RMK A01 T00891066  RH  033%=      5-min Rain = 0
KCH1 130045Z 11006KT 09/M07 A3023 RMK A01 T00891065  RH  033%=      5-min Rain = 0
KCH1 130046Z 12006KT 09/M07 A3023 RMK A01 T00881065  RH  033%=      5-min Rain = 0
KCH1 130047Z 11006KT 09/M07 A3023 RMK A01 T00871066  RH  033%=      5-min Rain = 0
KCH1 130048Z 12006KT 09/M07 A3023 RMK A01 T00871066  RH  033%=      5-min Rain = 0
KCH1 130049Z 12006KT 09/M07 A3023 RMK A01 T00871065  RH  033%=      5-min Rain = 0
KCH1 130050Z 12006KT 09/M07 A3024 RMK A01 T00861065  RH  034%=      5-min Rain = 0
KCH1 130051Z 12006KT 09/M07 A3024 RMK A01 T00861065  RH  034%=      5-min Rain = 0
KCH1 130052Z 12006KT 09/M07 A3024 RMK A01 T00861065  RH  034%=      5-min Rain = 0
KCH1 130053Z 12006KT 09/M07 A3024 RMK A01 T00851066  RH  034%=      5-min Rain = 0
KCH1 130054Z 12005KT 09/M07 A3024 RMK A01 T00851065  RH  034%=      5-min Rain = 0
KCH1 130055Z 12006KT 09/M07 A3024 RMK A01 T00851065  RH  034%=      5-min Rain = 0
KCH1 130056Z 12006KT 09/M07 A3024 RMK A01 T00851065  RH  034%=      5-min Rain = 0
KCH1 130057Z 12005KT 09/M07 A3024 RMK A01 T00851065  RH  034%=      5-min Rain = 0
KCH1 130058Z 12006KT 08/M07 A3024 RMK A01 T00841066  RH  034%=      5-min Rain = 0
KCH1 130059Z 12006KT 08/M07 A3024 RMK A01 T00841066  RH  034%=      5-min Rain = 0
KCH1 130100Z 12006KT 08/M07 A3024 RMK A01 T00841065  RH  034%=      5-min Rain = 0
KCH1 130101Z 12006KT 08/M07 A3024 RMK A01 T00841065  RH  034%=      5-min Rain = 0
KCH1 130102Z 12006KT 08/M07 A3024 RMK A01 T00831066  RH  034%=      5-min Rain = 0
KCH1 130103Z 11006KT 08/M07 A3024 RMK A01 T00831066  RH  034%=      5-min Rain = 0
KCH1 130104Z 11006KT 08/M07 A3024 RMK A01 T00811066  RH  035%=      5-min Rain = 0
KCH1 130105Z 11006KT 08/M07 A3024 RMK A01 T00811066  RH  035%=      5-min Rain = 0
KCH1 130106Z 11006KT 08/M07 A3024 RMK A01 T00811065  RH  035%=      5-min Rain = 0
KCH1 130107Z 11007KT 08/M07 A3024 RMK A01 T00811065  RH  035%=      5-min Rain = 0
KCH1 130108Z 11007KT 08/M07 A3024 RMK A01 T00821065  RH  035%=      5-min Rain = 0
KCH1 130109Z 11006KT 08/M07 A3024 RMK A01 T00821065  RH  035%=      5-min Rain = 0
KCH1 130110Z 11007KT 08/M07 A3024 RMK A01 T00821065  RH  035%=      5-min Rain = 0
KCH1 130111Z 11006KT 08/M07 A3024 RMK A01 T00811065  RH  035%=      5-min Rain = 0
KCH1 130112Z 11006KT 08/M07 A3024 RMK A01 T00811065  RH  035%=      5-min Rain = 0
KCH1 130113Z 11006KT 08/M07 A3024 RMK A01 T00811065  RH  035%=      5-min Rain = 0
KCH1 130114Z 11006KT 08/M06 A3024 RMK A01 T00801064  RH  035%=      5-min Rain = 0
KCH1 130115Z 11007KT 08/M07 A3024 RMK A01 T00791065  RH  035%=      5-min Rain = 0
KCH1 130116Z 11007KT 08/M07 A3024 RMK A01 T00791065  RH  035%=      5-min Rain = 0
KCH1 130117Z 11006KT 08/M07 A3024 RMK A01 T00791065  RH  035%=      5-min Rain = 0
KCH1 130118Z 10006KT 08/M06 A3024 RMK A01 T00781064  RH  036%=      5-min Rain = 0
KCH1 130119Z 10006KT 08/M07 A3024 RMK A01 T00771065  RH  036%=      5-min Rain = 0
KCH1 130120Z 10006KT 08/M07 A3024 RMK A01 T00781065  RH  036%=      5-min Rain = 0
KCH1 130121Z 10006KT 08/M07 A3024 RMK A01 T00771065  RH  036%=      5-min Rain = 0
KCH1 130122Z 10006KT 08/M07 A3024 RMK A01 T00761065  RH  036%=      5-min Rain = 0
KCH1 130123Z 09006KT 08/M07 A3024 RMK A01 T00751065  RH  036%=      5-min Rain = 0
KCH1 130124Z 10005KT 08/M07 A3024 RMK A01 T00751065  RH  036%=      5-min Rain = 0
KCH1 130125Z 09005KT 07/M07 A3024 RMK A01 T00741065  RH  036%=      5-min Rain = 0
KCH1 130126Z 09006KT 08/M07 A3024 RMK A01 T00751065  RH  036%=      5-min Rain = 0
KCH1 130127Z 09006KT 08/M07 A3024 RMK A01 T00751065  RH  036%=      5-min Rain = 0
KCH1 130128Z 10005KT 07/M07 A3024 RMK A01 T00741065  RH  036%=      5-min Rain = 0
KCH1 130129Z 10005KT 07/M07 A3024 RMK A01 T00741065  RH  036%=      5-min Rain = 0
KCH1 130130Z 10005KT 07/M07 A3024 RMK A01 T00741065  RH  037%=      5-min Rain = 0
KCH1 130131Z 10005KT 07/M07 A3024 RMK A01 T00741065  RH  037%=      5-min Rain = 0
KCH1 130132Z 10005KT 07/M07 A3024 RMK A01 T00731065  RH  037%=      5-min Rain = 0
KCH1 130133Z 10005KT 07/M07 A3024 RMK A01 T00731065  RH  037%=      5-min Rain = 0
KCH1 130134Z 09005KT 07/M07 A3024 RMK A01 T00721066  RH  037%=      5-min Rain = 0
KCH1 130135Z 09005KT 07/M07 A3024 RMK A01 T00711066  RH  037%=      5-min Rain = 0
KCH1 130136Z 09005KT 07/M07 A3024 RMK A01 T00701066  RH  037%=      5-min Rain = 0
KCH1 130137Z 09005KT 07/M07 A3025 RMK A01 T00691067  RH  037%=      5-min Rain = 0
KCH1 130138Z 09005KT 07/M07 A3025 RMK A01 T00681066  RH  038%=      5-min Rain = 0
KCH1 130139Z 09005KT 07/M07 A3025 RMK A01 T00681066  RH  038%=      5-min Rain = 0
KCH1 130140Z 08005KT 07/M07 A3025 RMK A01 T00681066  RH  038%=      5-min Rain = 0
KCH1 130141Z 09005KT 07/M07 A3025 RMK A01 T00671067  RH  038%=      5-min Rain = 0
KCH1 130142Z 09005KT 07/M07 A3025 RMK A01 T00671067  RH  038%=      5-min Rain = 0
KCH1 130143Z 08004KT 07/M07 A3025 RMK A01 T00671067  RH  038%=      5-min Rain = 0
KCH1 130144Z 09004KT 07/M07 A3025 RMK A01 T00651068  RH  038%=      5-min Rain = 0
KCH1 130145Z 08005KT 06/M07 A3025 RMK A01 T00641068  RH  038%=      5-min Rain = 0
KCH1 130146Z 09005KT 06/M07 A3025 RMK A01 T00641067  RH  038%=      5-min Rain = 0
KCH1 130147Z 09005KT 06/M07 A3025 RMK A01 T00631068  RH  039%=      5-min Rain = 0
KCH1 130148Z 09005KT 06/M07 A3025 RMK A01 T00631067  RH  039%=      5-min Rain = 0
KCH1 130149Z 09004KT 06/M07 A3025 RMK A01 T00631067  RH  039%=      5-min Rain = 0
KCH1 130150Z 09004KT 06/M07 A3025 RMK A01 T00631067  RH  039%=      5-min Rain = 0
KCH1 130151Z 09004KT 06/M07 A3025 RMK A01 T00631067  RH  039%=      5-min Rain = 0
KCH1 130152Z 09004KT 06/M07 A3025 RMK A01 T00631067  RH  039%=      5-min Rain = 0
KCH1 130153Z 09004KT 06/M07 A3025 RMK A01 T00621067  RH  039%=      5-min Rain = 0
KCH1 130154Z 09004KT 06/M07 A3025 RMK A01 T00621067  RH  039%=      5-min Rain = 0
KCH1 130155Z 09004KT 06/M07 A3025 RMK A01 T00621067  RH  039%=      5-min Rain = 0
KCH1 130156Z 09004KT 06/M07 A3025 RMK A01 T00621067  RH  039%=      5-min Rain = 0
KCH1 130157Z 09005KT 06/M07 A3025 RMK A01 T00621067  RH  039%=      5-min Rain = 0
KCH1 130158Z 10006KT 06/M07 A3025 RMK A01 T00621067  RH  039%=      5-min Rain = 0
KCH1 130159Z 10005KT 06/M07 A3025 RMK A01 T00621067  RH  039%=      5-min Rain = 0
KCH1 130200Z 10004KT 06/M07 A3025 RMK A01 T00621066  RH  039%=      5-min Rain = 0
KCH1 130201Z 10005KT 06/M07 A3025 RMK A01 T00621066  RH  039%=      5-min Rain = 0
KCH1 130202Z 10004KT 06/M07 A3025 RMK A01 T00621065  RH  040%=      5-min Rain = 0
KCH1 130203Z 10004KT 06/M07 A3025 RMK A01 T00621065  RH  040%=      5-min Rain = 0
KCH1 130204Z 10005KT 06/M07 A3025 RMK A01 T00611066  RH  040%=      5-min Rain = 0
KCH1 130205Z 10005KT 06/M07 A3025 RMK A01 T00611065  RH  040%=      5-min Rain = 0
KCH1 130206Z 10006KT 06/M07 A3025 RMK A01 T00611065  RH  040%=      5-min Rain = 0
KCH1 130207Z 10006KT 06/M07 A3025 RMK A01 T00611065  RH  040%=      5-min Rain = 0
KCH1 130208Z 10006KT 06/M07 A3025 RMK A01 T00611065  RH  040%=      5-min Rain = 0
KCH1 130209Z 10006KT 06/M06 A3025 RMK A01 T00601064  RH  040%=      5-min Rain = 0
KCH1 130210Z 10007KT 06/M06 A3025 RMK A01 T00591064  RH  041%=      5-min Rain = 0
KCH1 130211Z 10006KT 06/M06 A3025 RMK A01 T00591064  RH  041%=      5-min Rain = 0
KCH1 130212Z 10006KT 06/M06 A3025 RMK A01 T00591064  RH  041%=      5-min Rain = 0
KCH1 130213Z 10006KT 06/M06 A3025 RMK A01 T00591064  RH  041%=      5-min Rain = 0
KCH1 130214Z 10006KT 06/M06 A3025 RMK A01 T00591064  RH  041%=      5-min Rain = 0
KCH1 130215Z 10006KT 06/M06 A3025 RMK A01 T00581064  RH  041%=      5-min Rain = 0
KCH1 130216Z 10006KT 06/M06 A3025 RMK A01 T00581063  RH  041%=      5-min Rain = 0
KCH1 130217Z 10006KT 06/M06 A3025 RMK A01 T00581063  RH  041%=      5-min Rain = 0
KCH1 130218Z 10006KT 06/M06 A3025 RMK A01 T00581063  RH  041%=      5-min Rain = 0
KCH1 130219Z 09006KT 06/M06 A3025 RMK A01 T00581063  RH  041%=      5-min Rain = 0
KCH1 130220Z 09006KT 06/M06 A3025 RMK A01 T00581063  RH  041%=      5-min Rain = 0
KCH1 130221Z 10006KT 06/M06 A3025 RMK A01 T00581063  RH  042%=      5-min Rain = 0
KCH1 130222Z 09005KT 06/M06 A3025 RMK A01 T00581063  RH  042%=      5-min Rain = 0
KCH1 130223Z 09005KT 06/M06 A3025 RMK A01 T00581062  RH  042%=      5-min Rain = 0
KCH1 130224Z 09004KT 06/M06 A3025 RMK A01 T00571063  RH  042%=      5-min Rain = 0
KCH1 130225Z 09004KT 06/M06 A3025 RMK A01 T00571063  RH  042%=      5-min Rain = 0
KCH1 130226Z 09005KT 06/M06 A3025 RMK A01 T00571062  RH  042%=      5-min Rain = 0
KCH1 130227Z 09005KT 06/M06 A3025 RMK A01 T00581062  RH  042%=      5-min Rain = 0
KCH1 130228Z 09005KT 06/M06 A3025 RMK A01 T00581062  RH  042%=      5-min Rain = 0
KCH1 130229Z 09006KT 06/M06 A3025 RMK A01 T00571063  RH  042%=      5-min Rain = 0
KCH1 130230Z 10006KT 06/M06 A3025 RMK A01 T00571062  RH  042%=      5-min Rain = 0
KCH1 130231Z 10005KT 06/M06 A3025 RMK A01 T00571062  RH  042%=      5-min Rain = 0
KCH1 130232Z 10006KT 06/M06 A3025 RMK A01 T00571061  RH  042%=      5-min Rain = 0
KCH1 130233Z 10006KT 06/M06 A3025 RMK A01 T00571061  RH  042%=      5-min Rain = 0
KCH1 130234Z 10006KT 06/M06 A3025 RMK A01 T00571061  RH  042%=      5-min Rain = 0
KCH1 130235Z 10006KT 06/M06 A3025 RMK A01 T00571061  RH  042%=      5-min Rain = 0
KCH1 130236Z 10006KT 06/M06 A3025 RMK A01 T00571061  RH  042%=      5-min Rain = 0
KCH1 130237Z 10006KT 06/M06 A3026 RMK A01 T00571061  RH  042%=      5-min Rain = 0
KCH1 130238Z 09006KT 06/M06 A3026 RMK A01 T00571061  RH  042%=      5-min Rain = 0
KCH1 130239Z 09005KT 06/M06 A3026 RMK A01 T00571061  RH  042%=      5-min Rain = 0
KCH1 130240Z 09006KT 06/M06 A3026 RMK A01 T00581061  RH  042%=      5-min Rain = 0
KCH1 130241Z 09006KT 06/M06 A3026 RMK A01 T00581061  RH  042%=      5-min Rain = 0
KCH1 130242Z 09007KT 06/M06 A3026 RMK A01 T00581061  RH  042%=      5-min Rain = 0
KCH1 130243Z 09007KT 06/M06 A3026 RMK A01 T00581061  RH  042%=      5-min Rain = 0
KCH1 130244Z 09005KT 06/M06 A3026 RMK A01 T00581061  RH  042%=      5-min Rain = 0
KCH1 130245Z 09005KT 06/M06 A3026 RMK A01 T00581060  RH  042%=      5-min Rain = 0
KCH1 130246Z 09005KT 06/M06 A3026 RMK A01 T00571061  RH  042%=      5-min Rain = 0
KCH1 130247Z 09006KT 06/M06 A3026 RMK A01 T00561061  RH  042%=      5-min Rain = 0
KCH1 130248Z 09006KT 06/M06 A3026 RMK A01 T00561061  RH  043%=      5-min Rain = 0
KCH1 130249Z 09006KT 06/M06 A3026 RMK A01 T00561061  RH  043%=      5-min Rain = 0
KCH1 130250Z 09005KT 06/M06 A3026 RMK A01 T00571060  RH  043%=      5-min Rain = 0
KCH1 130251Z 09006KT 06/M06 A3026 RMK A01 T00561061  RH  043%=      5-min Rain = 0
KCH1 130252Z 09005KT 06/M06 A3026 RMK A01 T00561061  RH  043%=      5-min Rain = 0
KCH1 130253Z 10006KT 06/M06 A3026 RMK A01 T00561061  RH  043%=      5-min Rain = 0
KCH1 130254Z 09006KT 06/M06 A3026 RMK A01 T00561060  RH  043%=      5-min Rain = 0
KCH1 130255Z 10005KT 06/M06 A3026 RMK A01 T00561061  RH  043%=      5-min Rain = 0
KCH1 130256Z 10005KT 06/M06 A3026 RMK A01 T00561061  RH  043%=      5-min Rain = 0
KCH1 130257Z 09005KT 05/M06 A3026 RMK A01 T00541062  RH  043%=      5-min Rain = 0
KCH1 130258Z 09005KT 05/M06 A3026 RMK A01 T00531062  RH  043%=      5-min Rain = 0
KCH1 130259Z 10006KT 05/M06 A3026 RMK A01 T00531061  RH  044%=      5-min Rain = 0
KCH1 130300Z 10005KT 05/M06 A3026 RMK A01 T00521061  RH  044%=      5-min Rain = 0
KCH1 130301Z 09006KT 05/M06 A3025 RMK A01 T00521061  RH  044%=      5-min Rain = 0
KCH1 130302Z 10006KT 05/M06 A3025 RMK A01 T00521061  RH  044%=      5-min Rain = 0
KCH1 130303Z 09005KT 05/M06 A3026 RMK A01 T00521061  RH  044%=      5-min Rain = 0
KCH1 130304Z 09006KT 05/M06 A3026 RMK A01 T00511061  RH  044%=      5-min Rain = 0
KCH1 130305Z 09006KT 05/M06 A3026 RMK A01 T00521060  RH  044%=      5-min Rain = 0
KCH1 130306Z 09006KT 05/M06 A3026 RMK A01 T00531060  RH  044%=      5-min Rain = 0
KCH1 130307Z 10005KT 05/M06 A3026 RMK A01 T00541059  RH  044%=      5-min Rain = 0
KCH1 130308Z 09006KT 05/M06 A3026 RMK A01 T00541060  RH  044%=      5-min Rain = 0
KCH1 130309Z 10007KT 05/M06 A3026 RMK A01 T00541059  RH  044%=      5-min Rain = 0
KCH1 130310Z 09006KT 05/M06 A3026 RMK A01 T00541059  RH  044%=      5-min Rain = 0
KCH1 130311Z 09006KT 05/M06 A3026 RMK A01 T00541059  RH  044%=      5-min Rain = 0
KCH1 130312Z 10006KT 05/M06 A3026 RMK A01 T00541059  RH  044%=      5-min Rain = 0
KCH1 130313Z 09006KT 05/M06 A3026 RMK A01 T00541059  RH  044%=      5-min Rain = 0
KCH1 130314Z 10006KT 05/M06 A3026 RMK A01 T00541059  RH  044%=      5-min Rain = 0
KCH1 130315Z 09006KT 05/M06 A3026 RMK A01 T00541059  RH  044%=      5-min Rain = 0
KCH1 130316Z 10007KT 05/M06 A3026 RMK A01 T00541058  RH  044%=      5-min Rain = 0
KCH1 130317Z 09006KT 05/M06 A3026 RMK A01 T00541058  RH  044%=      5-min Rain = 0
KCH1 130318Z 09006KT 05/M06 A3026 RMK A01 T00541058  RH  044%=      5-min Rain = 0
KCH1 130319Z 10008KT 05/M06 A3026 RMK A01 T00541058  RH  044%=      5-min Rain = 0
KCH1 130320Z 10007KT 05/M06 A3026 RMK A01 T00541058  RH  044%=      5-min Rain = 0
KCH1 130321Z 10006KT 05/M06 A3026 RMK A01 T00541058  RH  044%=      5-min Rain = 0
KCH1 130322Z 10007KT 05/M06 A3026 RMK A01 T00541058  RH  044%=      5-min Rain = 0
KCH1 130323Z 10007KT 05/M06 A3026 RMK A01 T00531058  RH  045%=      5-min Rain = 0
KCH1 130324Z 10007KT 05/M06 A3026 RMK A01 T00531057  RH  045%=      5-min Rain = 0
KCH1 130325Z 10007KT 05/M06 A3026 RMK A01 T00531057  RH  045%=      5-min Rain = 0
KCH1 130326Z 10008KT 05/M06 A3026 RMK A01 T00531057  RH  045%=      5-min Rain = 0
KCH1 130327Z 10007KT 05/M06 A3026 RMK A01 T00531057  RH  045%=      5-min Rain = 0
KCH1 130328Z 09007KT 05/M06 A3026 RMK A01 T00541056  RH  045%=      5-min Rain = 0
KCH1 130329Z 10007KT 05/M06 A3026 RMK A01 T00531057  RH  045%=      5-min Rain = 0
KCH1 130330Z 10007KT 05/M06 A3026 RMK A01 T00541057  RH  045%=      5-min Rain = 0
KCH1 130331Z 09006KT 05/M06 A3026 RMK A01 T00541057  RH  045%=      5-min Rain = 0
KCH1 130332Z 09006KT 05/M06 A3026 RMK A01 T00531057  RH  045%=      5-min Rain = 0
KCH1 130333Z 09007KT 05/M06 A3026 RMK A01 T00531057  RH  045%=      5-min Rain = 0
KCH1 130334Z 08005KT 05/M06 A3026 RMK A01 T00531057  RH  045%=      5-min Rain = 0
KCH1 130335Z 09005KT 05/M06 A3026 RMK A01 T00521057  RH  045%=      5-min Rain = 0
KCH1 130336Z 09006KT 05/M06 A3026 RMK A01 T00521057  RH  045%=      5-min Rain = 0
KCH1 130337Z 09007KT 05/M06 A3026 RMK A01 T00511057  RH  046%=      5-min Rain = 0
KCH1 130338Z 09007KT 05/M06 A3026 RMK A01 T00511057  RH  046%=      5-min Rain = 0
KCH1 130339Z 09006KT 05/M06 A3027 RMK A01 T00511057  RH  046%=      5-min Rain = 0
KCH1 130340Z 09005KT 05/M06 A3027 RMK A01 T00511057  RH  045%=      5-min Rain = 0
KCH1 130341Z 09005KT 05/M06 A3027 RMK A01 T00511057  RH  046%=      5-min Rain = 0
KCH1 130342Z 09005KT 05/M06 A3027 RMK A01 T00501058  RH  046%=      5-min Rain = 0
KCH1 130343Z 09004KT 05/M06 A3027 RMK A01 T00481058  RH  046%=      5-min Rain = 0
KCH1 130344Z 09004KT 05/M06 A3027 RMK A01 T00471058  RH  046%=      5-min Rain = 0
KCH1 130345Z 09004KT 05/M06 A3027 RMK A01 T00461059  RH  047%=      5-min Rain = 0
KCH1 130346Z 09005KT 05/M06 A3027 RMK A01 T00451058  RH  047%=      5-min Rain = 0
KCH1 130347Z 10004KT 05/M06 A3027 RMK A01 T00451059  RH  047%=      5-min Rain = 0
KCH1 130348Z 09005KT 05/M06 A3027 RMK A01 T00451058  RH  047%=      5-min Rain = 0
KCH1 130349Z 10005KT 05/M06 A3027 RMK A01 T00451057  RH  047%=      5-min Rain = 0
KCH1 130350Z 09006KT 05/M06 A3027 RMK A01 T00451057  RH  047%=      5-min Rain = 0
KCH1 130351Z 09007KT 05/M06 A3027 RMK A01 T00451057  RH  048%=      5-min Rain = 0
KCH1 130352Z 10007KT 04/M06 A3027 RMK A01 T00441057  RH  048%=      5-min Rain = 0
KCH1 130353Z 10008KT 04/M06 A3027 RMK A01 T00441056  RH  048%=      5-min Rain = 0
KCH1 130354Z 10008KT 04/M06 A3027 RMK A01 T00441056  RH  048%=      5-min Rain = 0
KCH1 130355Z 10010KT 04/M05 A3027 RMK A01 T00441054  RH  049%=      5-min Rain = 0
KCH1 130356Z 10008KT 05/M05 A3027 RMK A01 T00461053  RH  049%=      5-min Rain = 0
KCH1 130357Z 10008KT 05/M05 A3027 RMK A01 T00461053  RH  048%=      5-min Rain = 0
KCH1 130358Z 11010KT 05/M05 A3027 RMK A01 T00461053  RH  049%=      5-min Rain = 0
KCH1 130359Z 10008KT 05/M05 A3027 RMK A01 T00471052  RH  049%=      5-min Rain = 0
KCH1 130400Z 10010KT 05/M05 A3027 RMK A01 T00471051  RH  049%=      5-min Rain = 0
KCH1 130401Z 11010KT 05/M05 A3027 RMK A01 T00481050  RH  049%=      5-min Rain = 0
KCH1 130402Z 11008KT 05/M05 A3027 RMK A01 T00481050  RH  049%=      5-min Rain = 0
KCH1 130403Z 11007KT 05/M05 A3027 RMK A01 T00481050  RH  049%=      5-min Rain = 0
KCH1 130404Z 11006KT 05/M05 A3027 RMK A01 T00471050  RH  049%=      5-min Rain = 0
KCH1 130405Z 11008KT 05/M05 A3027 RMK A01 T00471050  RH  050%=      5-min Rain = 0
KCH1 130406Z 11007KT 05/M05 A3027 RMK A01 T00461049  RH  050%=      5-min Rain = 0
KCH1 130407Z 11009KT 05/M05 A3027 RMK A01 T00471049  RH  050%=      5-min Rain = 0
KCH1 130408Z 11007KT 05/M05 A3027 RMK A01 T00461048  RH  050%=      5-min Rain = 0
KCH1 130409Z 11008KT 05/M05 A3028 RMK A01 T00471048  RH  050%=      5-min Rain = 0
KCH1 130410Z 11008KT 05/M05 A3028 RMK A01 T00471048  RH  050%=      5-min Rain = 0
KCH1 130411Z 12008KT 05/M05 A3028 RMK A01 T00471048  RH  050%=      5-min Rain = 0
KCH1 130412Z 11008KT 05/M05 A3028 RMK A01 T00461048  RH  051%=      5-min Rain = 0
KCH1 130413Z 11007KT 05/M05 A3028 RMK A01 T00471047  RH  051%=      5-min Rain = 0
KCH1 130414Z 11007KT 05/M05 A3028 RMK A01 T00471047  RH  051%=      5-min Rain = 0
KCH1 130415Z 11008KT 05/M05 A3028 RMK A01 T00461047  RH  051%=      5-min Rain = 0
KCH1 130416Z 11007KT 05/M05 A3028 RMK A01 T00461047  RH  051%=      5-min Rain = 0
KCH1 130417Z 11007KT 05/M05 A3028 RMK A01 T00461047  RH  051%=      5-min Rain = 0
KCH1 130418Z 11008KT 05/M05 A3028 RMK A01 T00451047  RH  051%=      5-min Rain = 0
KCH1 130419Z 11008KT 05/M05 A3028 RMK A01 T00451047  RH  051%=      5-min Rain = 0
KCH1 130420Z 11008KT 05/M05 A3028 RMK A01 T00451047  RH  051%=      5-min Rain = 0
KCH1 130421Z 11007KT 05/M05 A3028 RMK A01 T00451046  RH  052%=      5-min Rain = 0
KCH1 130422Z 11009KT 04/M05 A3028 RMK A01 T00441047  RH  052%=      5-min Rain = 0
KCH1 130423Z 11007KT 04/M05 A3028 RMK A01 T00441046  RH  052%=      5-min Rain = 0
KCH1 130424Z 11007KT 04/M05 A3028 RMK A01 T00441046  RH  052%=      5-min Rain = 0
KCH1 130425Z 11008KT 04/M05 A3028 RMK A01 T00441046  RH  052%=      5-min Rain = 0
KCH1 130426Z 11007KT 04/M05 A3028 RMK A01 T00441045  RH  052%=      5-min Rain = 0
KCH1 130427Z 11008KT 04/M05 A3028 RMK A01 T00441045  RH  052%=      5-min Rain = 0
KCH1 130428Z 12007KT 04/M05 A3028 RMK A01 T00441045  RH  052%=      5-min Rain = 0
KCH1 130429Z 11006KT 05/M04 A3028 RMK A01 T00451044  RH  052%=      5-min Rain = 0
KCH1 130430Z 11007KT 04/M05 A3028 RMK A01 T00441045  RH  052%=      5-min Rain = 0
KCH1 130431Z 11006KT 04/M05 A3028 RMK A01 T00431045  RH  053%=      5-min Rain = 0
KCH1 130432Z 10005KT 04/M04 A3028 RMK A01 T00441044  RH  053%=      5-min Rain = 0
KCH1 130433Z 10005KT 04/M05 A3028 RMK A01 T00431045  RH  053%=      5-min Rain = 0
KCH1 130434Z 10004KT 04/M05 A3029 RMK A01 T00421045  RH  053%=      5-min Rain = 0
KCH1 130435Z 11005KT 04/M05 A3029 RMK A01 T00411046  RH  053%=      5-min Rain = 0
KCH1 130436Z 11006KT 04/M05 A3029 RMK A01 T00411045  RH  054%=      5-min Rain = 0
KCH1 130437Z 11007KT 04/M05 A3029 RMK A01 T00401045  RH  054%=      5-min Rain = 0
KCH1 130438Z 10006KT 04/M04 A3029 RMK A01 T00401044  RH  054%=      5-min Rain = 0
KCH1 130439Z 11005KT 04/M04 A3029 RMK A01 T00401044  RH  054%=      5-min Rain = 0
KCH1 130440Z 11005KT 04/M05 A3029 RMK A01 T00401045  RH  054%=      5-min Rain = 0
KCH1 130441Z 11005KT 04/M04 A3029 RMK A01 T00401044  RH  054%=      5-min Rain = 0
KCH1 130442Z 11006KT 04/M04 A3029 RMK A01 T00401044  RH  054%=      5-min Rain = 0
KCH1 130443Z 10004KT 04/M04 A3029 RMK A01 T00401044  RH  054%=      5-min Rain = 0
KCH1 130444Z 10005KT 04/M04 A3029 RMK A01 T00391044  RH  054%=      5-min Rain = 0
KCH1 130445Z 09005KT 04/M04 A3029 RMK A01 T00381044  RH  055%=      5-min Rain = 0
KCH1 130446Z 10006KT 04/M05 A3029 RMK A01 T00381045  RH  055%=      5-min Rain = 0
KCH1 130447Z 10006KT 04/M04 A3029 RMK A01 T00381044  RH  055%=      5-min Rain = 0
KCH1 130448Z 10005KT 04/M04 A3029 RMK A01 T00381043  RH  055%=      5-min Rain = 0
KCH1 130449Z 09005KT 04/M04 A3029 RMK A01 T00371044  RH  056%=      5-min Rain = 0
KCH1 130450Z 11006KT 04/M05 A3029 RMK A01 T00361045  RH  056%=      5-min Rain = 0
KCH1 130451Z 10005KT 04/M04 A3029 RMK A01 T00361044  RH  056%=      5-min Rain = 0
KCH1 130452Z 10005KT 04/M04 A3029 RMK A01 T00351044  RH  056%=      5-min Rain = 0
KCH1 130453Z 11005KT 04/M04 A3029 RMK A01 T00351044  RH  056%=      5-min Rain = 0
KCH1 130454Z 10006KT 04/M04 A3029 RMK A01 T00351043  RH  057%=      5-min Rain = 0
KCH1 130455Z 10005KT 03/M04 A3029 RMK A01 T00341044  RH  057%=      5-min Rain = 0
KCH1 130456Z 10005KT 03/M04 A3029 RMK A01 T00341043  RH  057%=      5-min Rain = 0
KCH1 130457Z 10005KT 04/M04 A3029 RMK A01 T00351043  RH  057%=      5-min Rain = 0
KCH1 130458Z 10005KT 03/M04 A3029 RMK A01 T00341043  RH  057%=      5-min Rain = 0
KCH1 130459Z 10006KT 03/M04 A3029 RMK A01 T00341043  RH  057%=      5-min Rain = 0
KCH1 130500Z 10005KT 03/M04 A3029 RMK A01 T00341043  RH  057%=      5-min Rain = 0
KCH1 130501Z 10005KT 03/M04 A3029 RMK A01 T00341043  RH  057%=      5-min Rain = 0
KCH1 130502Z 10006KT 03/M04 A3029 RMK A01 T00331043  RH  057%=      5-min Rain = 0
KCH1 130503Z 10006KT 03/M04 A3029 RMK A01 T00331043  RH  058%=      5-min Rain = 0
KCH1 130504Z 10006KT 03/M04 A3029 RMK A01 T00331043  RH  058%=      5-min Rain = 0
KCH1 130505Z 10006KT 03/M04 A3029 RMK A01 T00331043  RH  058%=      5-min Rain = 0
KCH1 130506Z 10006KT 03/M04 A3029 RMK A01 T00331043  RH  057%=      5-min Rain = 0
KCH1 130507Z 10005KT 03/M04 A3029 RMK A01 T00321043  RH  058%=      5-min Rain = 0
KCH1 130508Z 10007KT 03/M04 A3029 RMK A01 T00321043  RH  058%=      5-min Rain = 0
KCH1 130509Z 11006KT 03/M04 A3029 RMK A01 T00311043  RH  058%=      5-min Rain = 0
KCH1 130510Z 10006KT 03/M04 A3029 RMK A01 T00311043  RH  058%=      5-min Rain = 0
KCH1 130511Z 10007KT 03/M04 A3029 RMK A01 T00311043  RH  058%=      5-min Rain = 0
KCH1 130512Z 11006KT 03/M04 A3029 RMK A01 T00311043  RH  059%=      5-min Rain = 0
KCH1 130513Z 10007KT 03/M04 A3029 RMK A01 T00311042  RH  059%=      5-min Rain = 0
KCH1 130514Z 11006KT 03/M04 A3029 RMK A01 T00301042  RH  059%=      5-min Rain = 0
KCH1 130515Z 11006KT 03/M04 A3029 RMK A01 T00301042  RH  059%=      5-min Rain = 0
KCH1 130516Z 11007KT 03/M04 A3029 RMK A01 T00301042  RH  059%=      5-min Rain = 0
KCH1 130517Z 11007KT 03/M04 A3029 RMK A01 T00301042  RH  059%=      5-min Rain = 0
KCH1 130518Z 11007KT 03/M04 A3029 RMK A01 T00301041  RH  059%=      5-min Rain = 0
KCH1 130519Z 11005KT 03/M04 A3029 RMK A01 T00311041  RH  059%=      5-min Rain = 0
KCH1 130520Z 11006KT 03/M04 A3029 RMK A01 T00301042  RH  059%=      5-min Rain = 0
KCH1 130521Z 11005KT 03/M04 A3029 RMK A01 T00301042  RH  059%=      5-min Rain = 0
KCH1 130522Z 10005KT 03/M04 A303 RMK A01 T00291042  RH  059%=      5-min Rain = 0
KCH1 130523Z 11006KT 03/M04 A303 RMK A01 T00291042  RH  060%=      5-min Rain = 0
KCH1 130524Z 11006KT 03/M04 A303 RMK A01 T00291041  RH  060%=      5-min Rain = 0
KCH1 130525Z 10004KT 03/M04 A303 RMK A01 T00291041  RH  060%=      5-min Rain = 0
KCH1 130526Z 10005KT 03/M04 A303 RMK A01 T00291041  RH  060%=      5-min Rain = 0
KCH1 130527Z 11005KT 03/M04 A303 RMK A01 T00281041  RH  060%=      5-min Rain = 0
KCH1 130528Z 10005KT 03/M04 A303 RMK A01 T00281041  RH  060%=      5-min Rain = 0
KCH1 130529Z 10004KT 03/M04 A303 RMK A01 T00281041  RH  060%=      5-min Rain = 0
KCH1 130530Z 10005KT 03/M04 A303 RMK A01 T00281042  RH  060%=      5-min Rain = 0
KCH1 130531Z 11005KT 03/M04 A303 RMK A01 T00271042  RH  061%=      5-min Rain = 0
KCH1 130532Z 09004KT 03/M04 A303 RMK A01 T00271041  RH  061%=      5-min Rain = 0
KCH1 130533Z 10005KT 03/M04 A303 RMK A01 T00261041  RH  061%=      5-min Rain = 0
KCH1 130534Z 10004KT 03/M04 A303 RMK A01 T00261041  RH  061%=      5-min Rain = 0
KCH1 130535Z 10004KT 03/M04 A303 RMK A01 T00261041  RH  061%=      5-min Rain = 0
KCH1 130536Z 10004KT 03/M04 A303 RMK A01 T00261041  RH  061%=      5-min Rain = 0
KCH1 130537Z 10004KT 03/M04 A303 RMK A01 T00251041  RH  061%=      5-min Rain = 0
KCH1 130538Z 09004KT 03/M04 A303 RMK A01 T00261041  RH  061%=      5-min Rain = 0
KCH1 130539Z 10004KT 03/M04 A303 RMK A01 T00251041  RH  061%=      5-min Rain = 0
KCH1 130540Z 09004KT 03/M04 A303 RMK A01 T00251041  RH  062%=      5-min Rain = 0
KCH1 130541Z 09003KT 03/M04 A303 RMK A01 T00251041  RH  062%=      5-min Rain = 0
KCH1 130542Z 09003KT 03/M04 A303 RMK A01 T00251042  RH  062%=      5-min Rain = 0
KCH1 130543Z 09004KT 02/M04 A303 RMK A01 T00241043  RH  062%=      5-min Rain = 0
KCH1 130544Z 09003KT 02/M04 A303 RMK A01 T00231042  RH  062%=      5-min Rain = 0
KCH1 130545Z 10003KT 02/M04 A303 RMK A01 T00231042  RH  062%=      5-min Rain = 0
KCH1 130546Z 09003KT 02/M04 A303 RMK A01 T00221042  RH  062%=      5-min Rain = 0
KCH1 130547Z 08003KT 02/M04 A303 RMK A01 T00221042  RH  062%=      5-min Rain = 0
KCH1 130548Z 07003KT 02/M04 A303 RMK A01 T00221042  RH  063%=      5-min Rain = 0
KCH1 130549Z 07003KT 02/M04 A303 RMK A01 T00221042  RH  063%=      5-min Rain = 0
KCH1 130550Z 08003KT 02/M04 A303 RMK A01 T00211043  RH  063%=      5-min Rain = 0
KCH1 130551Z 07003KT 02/M04 A303 RMK A01 T00211042  RH  063%=      5-min Rain = 0
KCH1 130552Z 08003KT 02/M04 A303 RMK A01 T00211042  RH  063%=      5-min Rain = 0
KCH1 130553Z 08003KT 02/M04 A303 RMK A01 T00201043  RH  063%=      5-min Rain = 0
KCH1 130554Z 08003KT 02/M04 A303 RMK A01 T00191044  RH  063%=      5-min Rain = 0
KCH1 130555Z 08003KT 02/M04 A303 RMK A01 T00191042  RH  064%=      5-min Rain = 0
KCH1 130556Z 08003KT 02/M04 A303 RMK A01 T00191043  RH  064%=      5-min Rain = 0
KCH1 130557Z 08003KT 02/M04 A303 RMK A01 T00181043  RH  064%=      5-min Rain = 0
KCH1 130558Z 08004KT 02/M04 A303 RMK A01 T00181043  RH  064%=      5-min Rain = 0
KCH1 130559Z 09003KT 02/M04 A303 RMK A01 T00171044  RH  064%=      5-min Rain = 0

Page generated in 0.0744 seconds.